cliquez pour ajouter le site Runraid à vos favoris  English version (google)  Retour à l'accueil Ecrire à l'auteur du site Runraid : Michel Jourdan



Les prochaines courses


Les derniers résultats

cliquez pour visualiser la page complète relatant la chronologie des éruptions du Piton de la Fournaise
éruptions Piton de la Fournaise


Ile de La Réunion

 Diagonale des Fous 

Ecrire au créateur du site : Michel Jourdan
Contact


2018-08-30 - TDS 2018

Pour consulter le palmarès d'un coureur, un clic sur son nom !

Vous avez des remarques, corrections, ... sur ces résultats , un clic sur --> pour me transmettre toute information concernant les classements


TDS 2018 - 2018 : classement des 1328 finishers
Place Nom Temps Cat. Club Sexe Clt/cat.
Place Nom Temps Cat. Club Sexe Clt/cat.
1 SWIERC Marcin 13:24:00 SEM POL / BUFF PRO TEAM M 6008
2 BOWMAN Dylan 13:25:02 SEM USA /THE NORTH FACE / RED M 6003
3 MITYAEV Dmitry 13:25:43 SEM RUS / ADIDAS TERREX M 6006
4 CASTANYER Tofol 13:58:25 V1M ESP M 1 V1M 6011
5 PAZOS Diego 14:39:18 SEM SUI / COMPRESSPORT M 4 SEM 6017
6 MIRASSOU Jerome 14:41:28 SEM GIVRES DE NAY M 5 SEM 6043
7 DUHAIL Nicolas 14:50:49 SEM TEAM OUTDOOR POLI M 6 SEM 6037
8 DURAND Regis 14:53:17 V1M TEAM TRAIL ISOSTAR BEN RU M 2 V1M 6052
9 CHORIER Julien 15:02:11 SEM FRA M 7 SEM 6024
10 YUN Yanqiao 15:04:10 SEM HOKA ONE ONE M 8 SEM 6016
10 JIMENEZ Moises 15:04:10 SEM THE NORTH FACE M 9 SEM 6067
12 FORBES Rob 15:15:53 SEM GBR M 10 SEM 6123
13 SUGIMOTO Satoshi 15:30:12 SEM JPN M 11 SEM 6108
14 JONES Christopher 15:34:05 SEM SALOMON CANADA M 12 SEM 6090
15 THERY Jonathan 15:34:51 SEM ASPTT ANNECY M 13 SEM 6070
16 CHAVET Cedric 15:38:41 V1M MORVAN OXYGENE TEAM GLOBE M 3 V1M 6062
17 ROUANET Renaud 15:42:23 V1M FRA M 4 V1M 6061
18 TACCHINI Giovanni 15:52:50 SEM TEAM VALTELLINA ASD M 14 SEM 6072
19 VADZIS Arturs 15:53:50 SEM LAT M 15 SEM 6350
20 OWENS Tom 15:56:16 SEM SALOMON M 16 SEM 6001
21 MARIN Jeremie 15:58:28 SEM CS MEGEVE M 17 SEM 6125
22 OSE Kazufumi 16:04:14 SEM SALOMON M 18 SEM 6047
23 TANGUY Audrey 16:05:22 SEF FRA F 1ere F 6041
24 BOSIO Rory 16:19:36 SEF THE NORTH FACE F 2 F 6022
25 DEBARRE Quentin 16:21:00 SEM RORTHAIS SPORT ENDURANCE M 19 SEM 6364
26 TIDD John 16:27:35 V2M ESP M 1 V2M 6095
27 FRUCHART Nicolas 16:40:09 V1M FRA M 5 V1M 6115
28 LEJEUNE Arnaud 16:40:52 SEM FRA M 20 SEM 6033
29 PAJEAN Patrice 16:43:35 V1M FRA M 6 V1M 6120
30 OGIER Paul 16:45:38 SEM FRA M 21 SEM 6083
31 COLLISON Kim 16:55:24 SEM RAIDLIGHT M 22 SEM 6064
32 PEREZ DE NANCLARES Oscar 16:55:51 V1M ESP M 7 V1M 6153
33 MATSUNAGA Hiroaki 17:01:30 SEM THE NORTH FACE M 23 SEM 6113
34 VILLAR LAZARO Hamal 17:01:54 SEM ESP M 24 SEM 6106
35 DENEFFE Guillaume 17:04:14 SEM BEL M 25 SEM 6372
36 DUPRAZ Benoit 17:08:21 SEM TEAM TRAIL CIMALP RRUN LY M 26 SEM 6131
37 RAMOS PENA Alvaro 17:11:22 SEM A4 XKM M 27 SEM 6076
38 CHALEYER Pierre 17:13:24 SEM FRA M 28 SEM 6361
39 CERISIER Nicolas 17:16:25 SEM FRA M 29 SEM 6129
40 BENOIT Caroline 17:18:02 SEF OXSITIS / ODLO F 3 F 6056
41 KISS Miklos 17:30:43 V1M SALOMON HUNGARY M 8 V1M 6082
42 BRAHMI Aissa 17:32:09 V1M FRA M 9 V1M 6369
43 URTADO Samuel 17:32:43 SEM TEAM TRAIL PARIS M 30 SEM 8225
44 MORENO VINAS Esteve 17:34:40 V2M AND M 2 V2M 6102
45 FATA Jordan 17:40:07 SEM TRAILEURS DES ARAVIS M 31 SEM 6341
46 ROSTOVTSEV Artem 17:40:28 V1M RUS M 10 V1M 6138
47 ZURFLUH Etienne 17:44:06 V1M CAF REIGNIER KIKOUROU M 11 V1M 6349
48 ALFARO VILCHEZ Guillermo 17:46:17 SEM ESP M 32 SEM 6474
49 LUCAK Herve 17:53:50 V2M JC EPERNAY CHAMPAGNE M 3 V2M 6148
50 LALLIER Antoine 17:54:22 SEM FRA M 33 SEM 6409
51 MALCOLM Corrine 17:55:19 SEF SALOMON F 4 F 6050
52 VIEIRA Nelson 18:06:04 V1M CLUBE MONTANHA FUNCHAL M 12 V1M 6431
53 MARCEL Remy 18:11:35 SEM 3D TRAIL ENDURANCE SHOP E M 34 SEM 6107
54 OLIVIER Florian 18:15:08 SEM TEAM CIMALP M 35 SEM 6154
55 VACHELARD Yohann 18:16:37 SEM AMITIE NATURE M 36 SEM 6367
56 SOTELO MARTINEZ Eduardo 18:19:19 SEM PENA TREVINCA M 37 SEM 6477
57 MARTINEZ CAPDEVILA Albert 18:20:15 SEM FAST COMPETICIO M 38 SEM 6443
58 ORMISTON Michael 18:28:33 V1M AUS M 13 V1M 6386
59 LACOMBE Thomas 18:29:10 SEM FRA M 39 SEM 6494
60 ZACCONE Simone 18:32:01 SEM BERGTEAM M 40 SEM 6352
61 ST LAURENT Alissa 18:34:06 SEF CAN F 5 F 6025
62 BETHAZ Marco 18:34:30 V2M TECHNOS MEDICA M 4 V2M 6140
63 CASTIELLA SANCHEZ OSTIZ Miguel 18:40:04 SEM CLOS PONS THAI RUNNERS M 41 SEM 6455
63 NIMER ECHAVE Isaac Federico 18:40:04 SEM DANIEL SIMBRON RT M 42 SEM 8181
65 BARTHeLeMY Marc 18:44:57 SEM TEAM UTPMA M 43 SEM 6135
66 ZOUARI Guillaume 18:54:42 SEM FRA M 44 SEM 6656
67 LOCATELLI Sonia 18:56:08 SEF TEAM SALOMON ITALIA F 6 F 6053
68 NOVOTNY Petr 18:57:02 SEM TAIWAN BEAST RUNNERS M 45 SEM 6130
69 BELUS TamAs 18:58:46 SEM GIZIONOK M 46 SEM 6565
70 BORGERSEN Elisabeth 19:00:13 SEF SWE F 7 F 6339
71 CHARAVEL Eric 19:00:47 V1M FRA M 14 V1M 6373
72 CHIARINI Claudio 19:01:02 V1M 3T VALTARO M 15 V1M 6146
73 KLIMSA TomAS 19:01:11 SEM BESKYD NATURAL M 47 SEM 6596
74 COLLIGNON Jean Remi 19:03:53 SEM ACS NATATION SEYSSINET M 48 SEM 6545
75 WHITEHEAD Daniel 19:05:42 SEM AUS M 49 SEM 6307
76 DENG Guomin 19:06:26 SEM SALOMON TEAM M 50 SEM 6054
77 VADOT Fabien 19:13:50 SEM FRA M 51 SEM 6463
78 CUSSOT Sylvaine 19:18:13 SEF ASICS / CA BALMA/ I RUN F 8 F 6079
79 GRY Nicolas 19:18:40 V1M FRA M 16 V1M 6459
80 VOUILLAMOZ Sylvain 19:18:42 SEM FRA M 52 SEM 6126
81 VOISIN Remi 19:19:04 SEM FRA M 53 SEM 6089
82 MEURISSE Paul 19:20:01 SEM COACH RUNNING M 54 SEM 6439
83 TROVATELLI Dario 19:21:52 SEM OM RUNNERS M 55 SEM 6532
84 MA Yanxing 19:24:12 V1F CHN F 1 V1F 6142
85 FERRARI Enzo 19:32:26 SEM THE NORTH FACE CHILE M 56 SEM 6136
86 LLOP XIRAU Arnau 19:39:55 SEM MONTSENY MAASAIS M 57 SEM 6470
87 ARCHER Joel 19:49:05 V2M TEAM RAIDLIGHT M 5 V2M 6497
88 MOUROT Sophie 19:53:06 SEF CNPONTARLIER TRIATHLON F 9 SEF 6137
89 CAZELLES Julien 19:53:39 V1M CORREZE ATHLE M 17 V1M 6410
90 DELGADO SANGLAS Jordi 19:56:31 SEM ELS CAGA GRIMPACIMS M 58 SEM 6379
91 MIEVRE Sebastien 19:56:39 V1M FRA M 18 V1M 6706
92 DEMARE Romain 19:57:21 SEM FRA M 59 SEM 6461
93 FIEDLER Dietmar 19:58:33 V1M AUT M 19 V1M 6109
94 EMMERSON Kellie 19:58:35 SEF AUS F 10 SEF 6026
95 BONNIER Laurent 19:59:04 V1M Mikael Pasero Coaching M 20 V1M 6547
96 ESTEVE SIMON Miguel Angel 20:00:14 V1M TRAIL UMBRIA LA PLANA M 21 V1M 6871
97 KIMMEL Megan 20:00:18 SEF SALOMON F 11 SEF 6002
98 WHITE Natalie 20:04:35 SEF GBR F 12 SEF 6139
99 ESCURIOLA REULA Sonia 20:04:52 SEF TEAM LAND GR33 F 13 SEF 6098
100 DELESPIERRE Marion 20:06:06 SEF FRA F 14 SEF 6127
101 GIMENEZ HOYAS Carlos 20:10:49 V1M C.E. PICORNELL M 22 V1M 6663
102 DAUCH Frederic 20:11:08 V1M FRA M 23 V1M 6496
103 VIDAL VILA Jordi 20:11:37 V1M TRAMUNTANA ESPORT M 24 V1M 6640
104 PARMENTIER Yoann 20:11:42 SEM FRA M 60 SEM 6366
105 VALIERE Julien 20:12:04 SEM FRA M 61 SEM 6403
106 ALVELAIS GONZALEZ Joseluis 20:16:25 SEM MEX M 62 SEM 6378
107 ANDRe Titouan 20:16:26 SEM FRA M 63 SEM 6423
108 HERNANDEZ SESMA Lucas 20:18:24 SEM F. PRIETO M 64 SEM 6456
109 LE BAHER Samuel 20:19:27 V1M BGSA M 25 V1M 6515
110 ERSHOVA Elizaveta 20:24:00 SEF RUS F 15 SEF 6343
111 LETAVERNIER Flavien 20:28:42 V1M STADE ATHLETIQUE BAYEUSAI M 26 V1M 6467
112 LACQUA Massimiliano 20:30:56 V1M ASD LIBERTAS FORNO M 27 V1M 6512
113 ZAMMIT Frederic 20:34:50 V1M TEAM PIRANHAS M 28 V1M 6488
114 POUDES Axel 20:35:01 SEM TRAIL & RUN PARIS M 65 SEM 6383
115 GERMAIN Arnaud 20:35:24 V1M UA SOCIETE GENERALE M 29 V1M 6611
115 CUNY Florent 20:35:24 SEM UA SOCIETE GENERALE M 66 SEM 6841
117 FOURTANIER Ludovic 20:35:27 V1M A. Cherbourg Marathon M 30 V1M 6500
118 MORENO ORTIZ Antonio 20:37:23 V2M ALPINO BENALMADENA IRONTR M 6 V2M 6420
119 NAGEL Matthias 20:37:59 SEM GER M 67 SEM 6482
120 LAVY Vincent 20:43:05 V1M FAC M 31 V1M 6782
121 PeREZ ALONSO Daniel 20:43:51 SEM ARISTA M 68 SEM 6415
121 FERNANDEZ GUERRERO Carlos 20:43:51 SEM ESP M 69 SEM 6509
123 PUIGDOLLERS PUJOL Josep 20:45:11 SEM CRAZY FOLKS M 70 SEM 7380
124 MILLIUS Stephane 20:46:50 V2M TEAM VALERETTE ALTISKI M 7 V2M 6345
125 MYOTTE DUQUET Manuel 20:48:53 SEM FRA M 71 SEM 6402
125 KOUVA Markku 20:48:53 V1M NORTHERN TRAIL RUNNERS M 32 V1M 6435
127 BOISSEAU Benoit 20:49:24 SEM BEAUJOLAIS RUNNERS M 72 SEM 6476
128 BOUCHET Nicolas 20:52:41 V1M TEAM PBL CRC M 33 V1M 6391
129 BELIN Matthieu 20:52:43 SEM FRA M 73 SEM 6518
130 OUTTERS Beno 20:53:01 SEM FRA M 74 SEM 6078
131 MASSANET Sebastian 20:53:09 SEM C.E. XENDENGUETS M 75 SEM 8178
132 DESPLANCHES Nicolas 20:54:32 V2M FRA M 8 V2M 6498
133 ANDERSON Samuel 20:54:45 SEM ETON MANOR M 76 SEM 6092
134 DA SILVA Joaquim 20:56:27 V1M MACADAM 07 M 34 V1M 6860
135 BOURGEOIS Julien 20:57:19 SEM TEAM FROMAGERIE MARCEL PE M 77 SEM 6493
136 GERMAIN Sebastien 20:59:05 SEM ACCRORUN VILLEPREUX M 78 SEM 6537
137 PLANCHE Mickael 21:00:20 SEM FRA M 79 SEM 6693
138 VIOUD Jerome 21:03:35 V1M BGSA M 35 V1M 6387
139 MAZZOCCO Elisabetta 21:05:29 SEF CIMAVILLA RUNNING TEAM F 16 SEF 6066
140 BOURGAIN Loic 21:07:08 SEM FRA M 80 SEM 6759
141 MARMET Patrice 21:08:48 V1M AIX ATHLE PROVENCE M 36 V1M 6355
142 SILVINA PEREZ MarIa 21:11:09 SEF ARG F 17 SEF 6396
143 DICONNE Thomas 21:11:52 SEM FRA M 81 SEM 6408
144 METSON Nick 21:12:51 V1M GBR M 37 V1M 6712
145 DEL MORAL PARRA Juan Manuel 21:13:29 SEM JARAPALOS TRAIL M 82 SEM 6905
146 MARTINEZ VILCHES Juan Carlos 21:13:34 SEM ESP M 83 SEM 6417
147 RUBEN FRANCISCO PAGES David 21:14:25 SEM Guayota M 84 SEM 6642
148 PAGEAU Sebastien 21:16:52 V1M FRA M 38 V1M 6938
149 SOTO ALARCON Sergio 21:16:57 SEM RUNNERS TEAM M 85 SEM 6416
150 SITNIKOV Artem 21:16:59 SEM SBR88 M 86 SEM 6853
151 RODRIGUEZ GIL David 21:17:32 V1M CORNELIOS M 39 V1M 6464
152 ANGHEL Costica 21:17:47 V2M RO CLUB MARATON M 9 V2M 8206
153 ANDRIEUX Nicolas 21:21:05 SEM FRA M 87 SEM 6475
154 TREMPS Claudia 21:23:02 ESF ASHI TEAM F 1 ESF 6384
155 DESPLANCHES Luc 21:23:41 V2M FRA M 10 V2M 6414
156 LORINCZ Oliver 21:24:40 V1M SALOMON HUNGARY FUSSTEIS M 40 V1M 6468
157 RAMIREZ Javier 21:27:33 V1M COSTERA SUR PAN MORENO M 41 V1M 8202
158 LABBACI Jacques 21:28:09 V1M UA SOCIETE GENERALE M 42 V1M 6370
159 GREHAL Boris 21:30:44 SEM FRA M 88 SEM 6401
160 OLLe BERNADES Marc 21:31:11 SEM ESP M 89 SEM 6513
161 UEMIYA Itsuko 21:32:53 V1F Columbiamontrail F 2 V1F 6145
162 YAKIMENKO Vitaliy 21:36:51 SEM MADPEPPER M 90 SEM 6619
163 BOURGOIN Pierre 21:37:24 SEM BOUBOU&CHOU M 91 SEM 7407
164 SPERKA TamAs 21:38:56 V1M COMPRESSPORT HUNGARY M 43 V1M 6144
165 ARCe Patrick 21:39:47 SEM COURIR A BEAUCAIRE M 92 SEM 6581
166 GUILHEM Jean 21:42:05 SEM CMBM M 93 SEM 7627
167 TURC Aurelien 21:42:35 SEM FRA M 94 SEM 6796
168 SANTA CECILIA Pedro 21:43:19 SEM TEAM NESPRAL M 95 SEM 6567
169 KUCSERA Marton 21:45:15 V1M MAFC M 44 V1M 6948
170 LAMOOT Sebastien 21:45:51 V1M FRA M 45 V1M 6792
171 MASUE Romain 21:46:42 SEM TEAM JOOL BREST M 96 SEM 6885
172 LAUGEROTTE Guillaume 21:47:32 SEM FRA M 97 SEM 7077
173 COSTE Gerald 21:50:28 V1M Team Blozone M 46 V1M 6778
174 BENZER Niklas 21:53:33 SEM GER M 98 SEM 6950
175 ERIKSEN Mads 21:54:08 SEM TRAIL & PANDELYGTESJOV M 99 SEM 6795
176 SOTILLO Antoni 21:55:21 V1M ESP M 47 V1M 6668
177 RUIZ NAVARRO Daniel 21:55:22 V1M ESP M 48 V1M 7173
178 M LLER Hanspeter 21:57:29 V2M KEINEN M 11 V2M 6570
179 AIGLE Thomas 21:59:31 SEM ND2BR M 100 SEM 6454
180 GUeDON Florence 21:59:56 V1F BESANCON TRIATHLON F 3 V1F 6359
181 RICARD Thomas 22:00:06 V1M FRA M 49 V1M 6954
182 PUCHKAREVA Olga 22:00:35 SEF KILPI RACING TEAM F 18 SEF 8164
183 PROUST Christopher 22:01:31 V1M Maurienne Ski Alpinisme M 50 V1M 6418
184 FUENTES RIVERA Hector 22:02:36 SEM New Balance Centro Americ M 101 SEM 6428
185 VIGROUX Gaetan 22:10:05 SEM VCL M 102 SEM 7079
186 HORA FAUSTINO Joao 22:11:36 V1M POR M 51 V1M 6479
187 JOREG MIRANDA Paulo 22:11:42 V1M TURRES TRAIL TEAM M 52 V1M 6539
188 CONTINI Davide 22:13:05 SEM VENGO LI M 103 SEM 6536
189 DONG Minfei 22:13:17 SEF CHN F 19 SEF 6147
190 BAUD Christophe 22:16:01 SEM FETERNES M 104 SEM 6551
191 RIABOVA Oksana 22:17:21 SEF Endurance School F 20 SEF 6422
192 JANVIER Arnaud 22:18:54 SEM FRA M 105 SEM 6717
193 JALMIN Loic 22:19:30 SEM FRA M 106 SEM 6893
194 MUSTICA Teresa 22:20:09 V1F DELTA SPEDIZIONI GENOVA F 4 V1F 6132
195 BLEW Kristian 22:20:20 V1M USA M 53 V1M 6112
196 DELBECQ Jean Francois 22:21:45 SEM AC ACHICOURT M 107 SEM 6556
197 HAUMANN Eric 22:23:50 V2M ASPTT BELFORT TRAIL M 12 V2M 6398
198 HICKMAN Andy 22:24:30 V1M SOUTHVILLE RUNNING CLUB M 54 V1M 8226
199 MARTIN VERDUGO Daniel 22:24:54 SEM C.D, FALSO LLANO M 108 SEM 6605
200 PIRES Pedro 22:26:07 V1M RUNNERS DO DEMO M 55 V1M 6645
201 LE BOUDEC Pierre 22:27:58 SEM FRA M 109 SEM 6546
202 MORET ES JEAN Gilles 22:30:19 SEM FRA M 110 SEM 7078
203 WITT Helene 22:30:53 SEF RC VANDOEUVRE F 21 SEF 6450
204 DUFAY Arthur 22:33:05 SEM FRA M 111 SEM 6574
205 RAMOUSSIN Thomas 22:33:10 SEM AVOC M 112 SEM 6723
206 HILLERSTROM Patrik 22:36:52 V1M GUDO SK M 56 V1M 6331
207 PURI Ram 22:37:24 SEM NEP M 113 SEM 6434
208 CHAOUI Driss 22:38:01 V1M FRA M 57 V1M 6368
209 VYSMEK Petr 22:38:41 V1M CZE M 58 V1M 6419
210 DOORE Anouk 22:39:27 V1F BOOST F 5 V1F 6491
211 DELAIGUE Bertrand 22:43:05 V1M AVOC M 59 V1M 6771
212 CROS Clement 22:44:19 SEM FRA M 114 SEM 6486
213 CLEMENT Paul 22:44:54 SEM FRA M 115 SEM 7034
214 PITIS Florent 22:45:27 SEM FRA M 116 SEM 7629
215 FRANCO Hugo 22:45:58 SEM CAZAMONTANAS M 117 SEM 6732
216 GREY Sebastien 22:48:04 V1M ENTRE DUNES ET BOUCHOTS M 60 V1M 6664
216 REGAZZONI Claudio 22:48:04 SEM ITA M 118 SEM 6704
218 MEGUENNI Rayan 22:49:02 SEM FRA M 119 SEM 7012
219 DURAND Yannick 22:49:37 V1M STAUBLI SPORTS M 61 V1M 6543
220 STEWART Shaun 22:49:52 SEM IRL M 120 SEM 6358
221 SOCQUET Cyprien 22:50:21 SEM Team SOCQUET VIDAL M 121 SEM 6828
222 CARLIN Beno 22:51:37 V1M USC NOUVION SUR MEUSE M 62 V1M 6448
223 GARDIEN Jeremie 22:52:37 SEM FRA M 122 SEM 7255
224 ROSALES Michel 22:53:08 SEM VENEZUELATRAILRUNNERS M 123 SEM 6672
225 FEDELE Domenico 22:54:24 V2M SPIRITO TRAIL ASD M 13 V2M 7005
226 BOURDIN Jerome 22:57:07 V1M CNPONTARLIER TRIATHLON M 63 V1M 6143
227 SANTOS Nuno 23:01:53 V1M FULHAM RUNNING CLUB M 64 V1M 7549
228 FRASCHIA Giulio 23:04:42 V2M SPORT CLUB ANGROGNA M 14 V2M 6677
229 SITBON Laurent 23:05:42 V1M FRA M 65 V1M 6480
230 MINAUX Eric 23:06:51 V1M CIVC M 66 V1M 6808
231 RENZONI Remi 23:07:43 SEM RACING LETI M 124 SEM 7192
232 LE TRANCHANT Emmanuel 23:08:15 V1M FRA M 67 V1M 6879
233 LEVY Tristan 23:08:21 V1M FRA M 68 V1M 6312
234 BURON Glen 23:08:53 SEM Station de Trail OSSAU PY M 125 SEM 6671
235 FRISONI Emanuele 23:09:39 SEM Asd Verona Trail Runners M 126 SEM 6634
236 GUIBBAL Christophe 23:11:58 V1M TEAM LIFE EXPERIENCE M 69 V1M 6694
237 LAFARGE Stephane 23:12:29 V1M BEAUMONT AC M 70 V1M 6822
238 PLATT Duncan 23:12:40 V1M WTF M 71 V1M 6587
239 CUPPLES Richard 23:12:41 SEM GBR M 127 SEM 7294
240 MORRIS Benjamin 23:12:46 SEM GBR M 128 SEM 8180
241 DE BIASE Anna 23:14:09 V1F SISPORT F 6 V1F 6124
242 BLEGVAD NISSEN Jesper 23:14:28 V1M TEAM FUSION M 72 V1M 6763
243 MOUREAUD Sebastien 23:15:04 V1M UA SOCIETE GENERALE M 73 V1M 6562
244 SPRUDS Andris 23:15:31 SEM VSK NOSKRIEN M 129 SEM 6868
245 DELPY Fabien 23:15:32 SEM AC GIGOUZAC SAINT GERMAIN M 130 SEM 6371
246 HARITONOVS Matiss 23:15:42 SEM LIFETHROUGHTRAILS M 131 SEM 6510
247 LAUGEROTTE Alexandre 23:15:46 SEM FRA M 132 SEM 6987
248 BALLY Steve 23:16:03 SEM LOU TAVAN M 133 SEM 6399
249 CHERNYSHEV Aleksey 23:17:00 V1M RUS M 74 V1M 6777
250 PIZZORNI Nicola 23:18:21 SEM ATLETICA BARILLA M 134 SEM 6149
251 CHARPENTIER Olivier 23:18:45 SEM FRA M 135 SEM 6748
252 CHARPENTIER Bruno 23:18:47 V1M GRPH738335 M 75 V1M 6727
253 ISIKLI Ilhan 23:19:00 SEM LISSES AC M 136 SEM 6697
254 JOUBERT Frederic 23:19:50 V1M FRA M 76 V1M 6781
255 JACQUET Manon 23:20:10 SEF SMAC F 22 SEF 6412
256 MOULIN Guillaume 23:21:09 SEM KALENJI TEAM M 137 SEM 7099
257 SERMET Christophe 23:21:24 V1M LES FURETS D EIFFAGE M 77 V1M 6737
258 POUX Christophe 23:21:58 V1M FRA M 78 V1M 6880
259 ROGERS Dominic 23:22:43 SEM GBR M 138 SEM 7057
260 KIRCHMAYR Arno 23:25:09 V2M MICHELLE MOUTON M 15 V2M 6922
261 BOCCHI Mathieu 23:25:35 SEM VAREGG/STATOIL BIL M 139 SEM 6678
262 SCHUMACHER Valerie 23:25:42 V2F ASSP VERGEZE F 1 V2F 6445
263 YOSHIRO Abe 23:26:04 V1M TEAMUSUKAWA M 79 V1M 6997
264 BARCELO ALOU Pere Joan 23:26:39 SEM SA MILANA ALARO M 140 SEM 7269
265 VASUTIU Florina 23:26:44 SEF LVF MURI F 23 SEF 6376
266 RIBO ROCA Ferran 23:27:35 SEM TRAIL MOIANES LLENGUTS M 141 SEM 6901
267 BERNES LASSERRE Nans 23:29:11 SEM FRA M 142 SEM 6528
268 BREWSTER James 23:29:14 SEM UTMBEERS M 143 SEM 6818
269 LECLERC Nadege 23:30:30 SEF EAGRENOBLE ASPTT F 24 SEF 6550
270 HERRERO ARRANZ Ruben 23:31:00 SEM Fundaci?n caja rural Burg M 144 SEM 7245
271 AUMOITTE Bertrand 23:32:59 SEM TEAM BOCHATON M 145 SEM 6478
272 HOLGERSSON Kajsa 23:33:20 SEF Liberty Trail Team F 25 SEF 8161
273 HURTAUD MARZANI Johann 23:34:21 SEM DIJON SINGLETRACK M 146 SEM 6553
274 GREENWOOD John 23:35:22 V1M RRRC M 80 V1M 6926
275 LEROY William 23:35:25 SEM K RAID ARDENNES M 147 SEM 6733
276 MOSKALIK Tomasz 23:35:51 V1M TG SOKO? ZAKOPANE M 81 V1M 6582
277 DELAITRE Olivier 23:38:02 SEM AJ AUXERRE SECTION MARATH M 148 SEM 7235
278 GOBERT David 23:38:03 V1M ACBB TRIATHLON M 82 V1M 7393
279 BROYER Laurent 23:38:07 V1M FRA M 83 V1M 6559
280 JABY Nicolas 23:38:17 V1M TEAM PBL M 84 V1M 7027
281 CHATELAIN Alexandre 23:38:20 V1M FRA M 85 V1M 7295
282 CROUVIZIER Olivier 23:39:31 SEM RRUN LYON M 149 SEM 6530
283 J DRZEJEWSKI Pawe 23:39:36 SEM STAY INSANE M 150 SEM 6740
284 CHARREL Laurent 23:42:07 SEM FRA M 151 SEM 6794
285 AL KHARFAN Thomas 23:42:40 SEM UA SOCIETE GENERALE M 152 SEM 6555
286 PETROV Dmitrii 23:43:28 SEM 42RUN.RU M 153 SEM 7553
287 VASILE Marian 23:44:30 V1M SPORTGURU Racing Team M 86 V1M 6773
288 MAIRY Yanis 23:48:01 ESM TAILLEFER TRAIL TEAM M 1 ESM 6832
289 CRESPO DIARTE Carlos 23:48:20 V2M TRIZURKO M 16 V2M 7164
290 RAJAN Ben 23:48:59 SEM MAVERICK TRAIL DIVISION M 154 SEM 6437
290 GAILLARD Cyril 23:48:59 V1M FRA M 87 V1M 7288
292 BELLETRE Nicolas 23:49:32 SEM USBS M 155 SEM 6722
293 PECK Martin 23:49:45 V2M WEST 4 HARRIERS M 17 V2M 6738
294 SOCHA Seweryn 23:50:22 SEM STR/WILD BEAVERS M 156 SEM 6617
295 HUET Emmanuel 23:50:53 V1M SANGLIERS DU MARDI M 88 V1M 6981
296 DIAS LANA JR Valmir 23:51:10 SEM GO ON OUTDOOR TEAM M 157 SEM 6614
297 RANDOIN Thibault 23:53:25 SEM TEAM OUTDOORVIEW.FR M 158 SEM 7335
298 BOIX CARBONeS Laura 23:53:51 SEF TRCARESTA F 26 SEF 6458
299 SHAW Robert 23:54:37 V1M GBR M 89 V1M 6670
300 KRAJNIKOVA Hana 23:54:52 SEF CZE F 27 SEF 6389
301 GUICHARDAN Arnaud 23:55:43 V1M FRA M 90 V1M 6746
302 DUMOND Sylviane 23:57:23 SEF FRA F 28 SEF 6438
303 WANG Yang 23:57:51 SEM CHN M 159 SEM 6100
304 MONTI Marco 23:59:11 SEM GLI ORSI M 160 SEM 6627
305 SJAVIK Trond 23:59:26 V3M NOR M 1 V3M 7647
306 MASQUELIER Franck 23:59:42 V1M ROLEX SPORT M 91 V1M 6579
307 SERRADJI Ange 24h 00' 02 SEM FRA M 161 SEM 6975
308 S NCHEZ DeNIZ Juan Carlos 24h 00' 06 V1M CD EL CLAN DE LA FATIGA M 92 V1M 7200
309 PLAVAN Marina 24h 00' 14 V2F VALETUDO SKYRUNNING ITALI F 2 V2F 6150
310 HURSON Cyril 24h 00' 16 V1M ITRA M 93 V1M 6689
311 ERIXON SAHLSTROM Linn 24h 01' 09 V1F BOURNEMOUTH ATHLETIC CLUB F 7 V1F 6451
312 VILLETTE Amelie 24h 01' 33 SEF FRA F 29 SEF 6913
313 BAUMGARTH Mathieu 24h 02' 10 SEM FRA M 162 SEM 7118
314 VIAL Alexandre 24h 04' 14 V1M FRA M 94 V1M 7943
315 DUCROS Francisco 24h 04' 45 SEM MALLORCA TRAIL M 163 SEM 7190
316 PHILIPPIDES Antoine 24h 07' 05 SEM FRA M 164 SEM 6489
317 D'ANTUONO Roberto 24h 08' 06 V2M LEOPODISTICA M 18 V2M 6811
318 DE LUCA Julie 24h 09' 00 SEF TRAIL ET DEFIS SPORTIFS F 30 SEF 6492
319 CORSI Thierry 24h 09' 48 V1M COURIR SUR LES TRACES DE M 95 V1M 6538
320 CASTELLANI Jean Simon 24h 11' 51 V1M LE HAVRE S'PORT ATHLETISM M 96 V1M 7058
321 THAIN Chris 24h 16' 05 SEM HEATON HARRIERS M 165 SEM 7308
322 FINOCCHIO Tim 24h 17' 53 V1M TRAIL ANIMALS RUNNING CLU M 97 V1M 6577
323 TRABA Ivan 24h 18' 59 V1M ESP M 98 V1M 7096
324 CAMINO LOPEZ Francesc 24h 20' 12 SEM ASPARDENYA ALCARRAS M 166 SEM 6524
325 WIJNANDS Bart 24h 20' 58 V1M NED M 99 V1M 6881
325 CHAVE Etienne 24h 20' 58 SEM INAOUT M 167 SEM 6972
327 GROUSSON Jerome 24h 21' 09 V1M FRA M 100 V1M 7547
328 BOUe Anthony 24h 21' 18 V1M LES TROTTEURS DU PINAIL M 101 V1M 7278
329 THUOT Herve 24h 21' 20 V2M UNION SPORTIVE CHATELET E M 19 V2M 6883
330 PAOLI Jean Christophe 24h 21' 29 V1M AC CORTE M 102 V1M 6754
331 D BROWSKI Kamil 24h 23' 26 SEM BIEGIEM PO PIWO PIWOTEKA M 168 SEM 6692
332 NOBLET Philippe 24h 23' 30 V1M FRA M 103 V1M 7388
333 EIDSMO Bj rnar 24h 24' 12 SEM SKY BLAZERS M 169 SEM 8172
334 OUIN Massimo 24h 25' 23 V1M FRA M 104 V1M 7303
335 ORAC Marian 24h 27' 23 V1M SVK M 105 V1M 7113
336 TERUEL VERA Juan Jose 24h 27' 32 V1M RUNNATIC M 106 V1M 6824
337 REMOR Michele 24h 29' 11 SEM GS ASTRA M 170 SEM 7135
338 BICHON Damien 24h 29' 56 SEM CHANTONNAY RAID M 171 SEM 7307
339 MOREIRA SOUSA Ana 24h 30' 09 SEF BUDEGUITA RUNNERS F 31 SEF 6522
340 BONATO Thierry 24h 30' 57 V1M MAGUELONE JOGGING M 107 V1M 6618
341 SENSINI Fabio 24h 31' 12 V1M A.P.T. M 108 V1M 6580
342 FILARDI Francesco Maria 24h 31' 13 V2M ASD TRAIL & RUNNING ALATR M 20 V2M 6588
343 PORTHAULT Alan 24h 31' 40 V1M FRA M 109 V1M 7085
344 TRAMONI Olivier 24h 32' 44 V1M ASPTT AJACCIO ATHLETISME M 110 V1M 6825
345 LIEBAERT Baptiste 24h 33' 30 SEM FRA M 172 SEM 6649
346 KOVILIC Pascal 24h 34' 33 V1M FCHA Hannut Athletisme M 111 V1M 6947
347 HELAINE Anthony 24h 36' 57 V1M FRA M 112 V1M 6927
348 MATRICON Olivier 24h 39' 13 V2M EASC M 21 V2M 7233
349 MIRANDA BELTRAN Rodrigo 24h 39' 39 V1M FITNESS SPORT TRIATLON M 113 V1M 7215
350 WATTERS Margot 24h 40' 26 V2F USA F 3 V2F 6460
351 RODRIGUEZ JIMeNEZ Celestino 24h 40' 45 V1M F.PRIETO M 114 V1M 6521
352 SEVE Ludovic 24h 45' 39 V1M FRA M 115 V1M 7114
353 SCHONFELD Jerome 24h 45' 40 V1M FORREST GONES M 116 V1M 6955
354 POTTS Duncan 24h 45' 44 V1M GBR M 117 V1M 7188
355 CUEVAS GARCIA Jose Luis 24h 46' 28 SEM LABARU TRAIL M 173 SEM 7457
356 GUICHARD Damien 24h 47' 23 SEM ND2BR M 174 SEM 6552
357 PETIAU Patrice 24h 47' 41 V2M PASS RUNNING M 22 V2M 6669
358 JOSEPH Joel 24h 48' 59 V2M PATRIOTE CROSS DE GUINES M 23 V2M 6849
359 ZALEJSKI Clement 24h 49' 01 SEM Z TEAM VERCORS M 175 SEM 6842
360 CAHUET Christophe 24h 49' 33 V1M XCTR TEAM M 118 V1M 6764
361 MARY Mickael 24h 50' 36 SEM CAP ENDURANCE M 176 SEM 6799
362 JANE MUNNIK Alana 24h 51' 25 SEF RUNNERS WORLD SA F 32 SEF 6453
363 PLATROZ Eric 24h 52' 09 V2M FRA M 24 V2M 6433
364 COMTE Nicolas 24h 52' 19 SEM FRA M 177 SEM 6857
365 ALVES Nuno 24h 53' 40 V1M #LETSRUNAZORES M 119 V1M 7111
366 DELEBARRE Vincent 24h 56' 19 V2M CMBM M 25 V2M 6158
367 PAUILLACQ Christian 24h 56' 26 V2M FRA M 26 V2M 6721
368 REECE LORAM Daniel 24h 56' 36 SEM GBR M 178 SEM 6917
369 CAJET Alain 24h 58' 23 V2M CAJ M 27 V2M 6929
370 BRUNO Tobias 25h 00' 40 SEM SWE M 179 SEM 7033
371 CARBONI JR Sirlesio 25h 02' 05 SEM BTR BENTO TRAIL RUNNERS M 180 SEM 7244
372 JACOB Jean Francois 25h 02' 36 V1M MACADAM07 M 120 V1M 6962
373 LECLERC Sebastien 25h 03' 35 SEM AT HOME AGENCY M 181 SEM 6356
374 GARCIA LUCAS Pablo 25h 05' 56 SEM ANDANDAEH M 182 SEM 7706
375 HALTER Thomas 25h 08' 30 SEM JEFFBTRAIL M 183 SEM 6696
376 SOJKA Pawe 25h 08' 44 V3M ALPENVEREIN M 2 V3M 7128
377 GOBERT Jerome 25h 08' 56 V1M FRA M 121 V1M 6780
378 CHICHLO Dimitri 25h 09' 51 V1M NCS TRAILEMAN M 122 V1M 7004
379 PEREZ DE CEA ESCUDERO David 25h 10' 29 V1M MONTANA DE CALAHORRA M 123 V1M 7138
380 CHIBANE Alexandre 25h 12' 23 SEM FRA M 184 SEM 7092
381 RUOPPOLI Alessandro 25h 13' 23 SEM ITA M 185 SEM 6687
382 CHEN Yuquan 25h 13' 29 SEM CHN M 186 SEM 6840
383 BIBARD Dominique 25h 15' 37 V1M ASEC LA POMMERAYE M 124 V1M 7542
384 GOURINE Andrey 25h 15' 38 V2M BLR M 28 V2M 6700
385 BOUILLOT Eric 25h 15' 59 V2M FRA M 29 V2M 7299
386 JIMeNEZ SALVADOR Juan 25h 16' 09 V1M ESP M 125 V1M 7162
387 RINALDI Ivan 25h 16' 14 SEM GAN NEMBRO ASD M 187 SEM 6710
388 DE KERGORLAY Florian 25h 16' 30 V1M FRA M 126 V1M 7287
389 CAILLON David 25h 16' 39 V1M AS CHU M 127 V1M 7159
390 LARK Alex 25h 16' 55 SEM NZL M 188 SEM 6682
391 GASULL DURAN Eduard 25h 17' 24 SEM CAMI DELS IBERS TRAILRUN M 189 SEM 6866
392 LEFEBVRE Nathan 25h 17' 28 SEM AC VILLENEUVE D'ASCQ M 190 SEM 6623
393 NARDELLA Regis 25h 18' 09 SEM SMAC M 191 SEM 6638
394 MIKOLAJCZAK Bartlomiej 25h 18' 23 V1M HALFWORN TEAM M 128 V1M 8198
395 SVANE BJERREGAARD Claus 25h 18' 28 V1M BLOVSTROD LOVERNE M 129 V1M 7126
396 DI COSIMO Enrico 25h 18' 41 SEM ITA M 192 SEM 6621
397 CARLI Matteo 25h 18' 42 SEM GSA ASIAGO M 193 SEM 6519
398 MANVIK Helle 25h 19' 30 V1F ROMERIKE ULTRALOPERKLUBB F 8 V1F 6118
399 BARROS Domingos 25h 20' 53 V1M AMIGOS DA MONTANHA M 130 V1M 7248
400 AVOTS Arnis 25h 22' 10 V2M AVOTS M 30 V2M 7723
401 MARIZON Yoann 25h 24' 39 SEM INAOUT M 194 SEM 7415
402 BRIANT Mickael 25h 25' 08 SEM FRA M 195 SEM 7131
403 VERDOOT Xavier 25h 26' 08 V1M BEL M 131 V1M 6603
404 KERBOURC'H Jocelyn 25h 27' 41 SEM AO CHARENTON M 196 SEM 6741
405 LEGOY Christophe 25h 27' 46 V2M SAINT MATHIEU ATHLETIC M 31 V2M 7139
406 PELISSIER Johan 25h 28' 49 V1M FRA M 132 V1M 7785
407 FREITAS Bruno 25h 28' 57 V1M CEE M M 133 V1M 6889
408 BERTRAND Valery 25h 29' 02 SEM RBC RUNNERS M 197 SEM 7333
409 MAREK Karel 25h 29' 07 SEM BRNO M 198 SEM 7072
410 FALLACARA Vincent 25h 29' 14 V1M FRA M 134 V1M 7195
411 BAUBET Francoise 25h 31' 21 V1F XTTR63 LE MONT DORE F 9 V1F 6440
412 LE ROUZIC Mikael 25h 31' 55 V1M US LE MANS M 135 V1M 6919
413 BOPP Robert 25h 32' 17 V2M NED M 32 V2M 8208
414 LAMARCHE Patrick 25h 33' 45 V1M SAF M 136 V1M 6861
415 BLATTMANN Brice 25h 34' 00 V1M FRA M 137 V1M 7230
416 MENCIER Frederic 25h 34' 02 V1M WWW.TRAIL PASSION.NET M 138 V1M 7094
417 REY Mike 25h 34' 08 V1M TRAIL MOUNTAIN M 139 V1M 6911
418 TSAI Chueh An 25h 34' 25 SEM TPE M 199 SEM 7590
419 OLMEDO Roberto 25h 34' 45 SEM ECU M 200 SEM 7047
420 SZUKALSKI Aleksander 25h 34' 50 SEM EISEN + STAHL Running Tea M 201 SEM 7353
421 ADOBATI Anne Marie 25h 34' 54 V1F MARSEILLE TRAIL CLUB F 10 V1F 6752
422 DUBREUIL Michael 25h 35' 27 SEM FRA M 202 SEM 7157
423 VOISIN David 25h 36' 16 V1M FAUCIGNY ATHLETIC CLUB M 140 V1M 7109
424 SINGH JAHANGIR Paviter 25h 36' 20 SEM SGP M 203 SEM 7450
425 PICARD Eric 25h 37' 03 V2M S/L SA FONTENAY LE COMTE M 33 V2M 7000
426 LEASK James 25h 37' 34 SEM GBR M 204 SEM 7046
427 CHERUBINI Thomas 25h 38' 04 ESM FRA M 2 ESM 7091
428 LARTILLEUX Stephanie 25h 38' 31 V1F FRA F 11 V1F 6452
429 FAYOLLE Lionel 25h 38' 33 V2M FRA M 34 V2M 7041
430 KUMPI S Ain rs 25h 38' 45 SEM VSK NOSKRIEN M 205 SEM 6575
431 CILIESA Roberto 25h 39' 20 V1M BIELLA RUNNING M 141 V1M 6560
432 BORTOLOTTI Emmanuel 25h 40' 00 V1M TRAIL FOR FUN HUY M 142 V1M 7544
433 TING CHRIS KWAN Yee 25h 40' 03 V1F COLUMBIA HK F 12 V1F 6328
434 ROBERT Yves 25h 40' 08 V1M HUY ATHLETIC CLUB M 143 V1M 6707
435 COLOMBO Paolo 25h 40' 12 SEM ITA M 206 SEM 7552
436 TORELLI Roberto 25h 40' 49 V2M ITA M 35 V2M 6817
437 DIMITRIOU Alexandre 25h 41' 16 SEM FRA M 207 SEM 6653
438 VONBUN Stefan 25h 41' 51 SEM KILOMETERFRESSER ULTRA TR M 208 SEM 6814
439 SILVA Goreti 25h 42' 53 V1F DESNIVEL POSITIVO F 13 V1F 6514
440 ANTONIO BORGES DA SILVA Manuel 25h 42' 54 V1M ARRABIDATRAILTEAM M 144 V1M 8188
441 VAN DE WOUW Rein 25h 47' 28 SEM NED M 209 SEM 7675
442 LUCAS Francois 25h 47' 47 SEM FOULEES SAUSSINOISES/GLOB M 210 SEM 6709
443 FIEVET Pascal 25h 48' 35 V1M PATRIOTE CROSS DE GUINES M 145 V1M 7239
444 GREGORY Stuart 25h 48' 56 V2M GBR M 36 V2M 7165
445 JOURNIST Dmitri 25h 49' 01 SEM USA M 211 SEM 6093
446 MILLS Darryl 25h 49' 02 SEM FAREHAM CRUSADERS M 212 SEM 7210
447 KAISER Teresa 25h 49' 03 SEF USA F 33 SEF 6075
448 PENEL Vincent 25h 49' 06 SEM COS RENAULT LARDY M 213 SEM 7524
449 COURVOISIER Fabrice 25h 49' 28 V1M ACCRORUN Villepreux M 146 V1M 7279
450 DE COLOMBE Godefroy 25h 51' 36 V1M ACBB M 147 V1M 6335
451 RAMOS GARCIA Fermin 25h 51' 52 SEM ESP M 214 SEM 7598
452 CHALMANDRIER Julien 25h 52' 01 SEM FRA M 215 SEM 6600
453 WISBoCK Thomas 25h 54' 05 V2M FREIBICHLTRAIL M 37 V2M 7189
454 VeRON Antoine 25h 54' 47 V1M FRA M 148 V1M 7251
455 VIALE Laurent 25h 55' 43 V1M FRA M 149 V1M 6676
456 MORETTI Lionel 25h 57' 05 V1M CS MEZZAVIA M 150 V1M 7101
457 PAQUIS Loic 25h 57' 54 SEM FRA M 216 SEM 7023
458 THIRION LOPEZ Loic 25h 57' 55 V1M FRA M 151 V1M 7088
459 THEVARD Stephane 25h 58' 51 V1M TERRE DE RUNNING SAUMUR M 152 V1M 6548
460 MARTIN Loic 25h 59' 51 SEM FRA M 217 SEM 6867
461 CAMBON Jeremy 26h 00' 02 SEM FRA M 218 SEM 7054
462 STRIZZOLO Marco 26h 00' 10 V1M ITA M 153 V1M 6809
463 BAILLY Jean Christophe 26h 01' 00 V2M FRA M 38 V2M 7030
464 SURUGIU Daniela 26h 01' 50 SEF UGLOW SPAIN F 34 SEF 6739
465 GARCIA RUIZ Fran 26h 02' 03 V1M BLUE ISARDS M 154 V1M 7872
466 MALEC Dawid 26h 02' 28 SEM MUAY RUNNING TEAM POLAND M 219 SEM 7359
467 GERENTES Gilbert 26h 04' 05 V2M MOUNTAIN DYKE M 39 V2M 7242
468 COURTINE Sophie 26h 04' 07 SEF FRA F 35 SEF 6701
469 VUARGNOZ Yves 26h 04' 55 V1M FRA M 155 V1M 7324
470 BARAY Pierre 26h 06' 10 SEM OXYGENE BELBEUF M 220 SEM 7292
471 BORELLA Stefano 26h 06' 38 V1M ITA M 156 V1M 7468
472 ANTONIO DOS SANTOS Marco 26h 07' 17 V1M UPFIT M 157 V1M 7652
473 VIDAL SALVI Jordi 26h 07' 23 V1M PESCALLUNES M 158 V1M 6517
474 GUIMONT Bruno 26h 07' 43 V2M FRA M 40 V2M 7680
475 O'NEIL Zac 26h 07' 58 V1M WELLINGBOROUGH & DISTRICT M 159 V1M 7112
475 HUMPHREY Andy 26h 07' 58 V1M GBR M 160 V1M 7857
477 TURNER Paul 26h 09' 11 V1M HELM HILL RUNNERS M 161 V1M 6632
478 SAVINEL Guillaume 26h 10' 31 SEM FRA M 221 SEM 7554
479 GARRE Luca 26h 11' 57 SEM ATLETICA VALLESCRIVIA M 222 SEM 7205
479 TAVERNA Stefano 26h 11' 57 V2M ASD DLF RUNNINGTEAM M 41 V2M 7530
481 CORNIGLION Pascal 26h 12' 33 SEM FRA M 223 SEM 6321
482 MULLOR ENGUIX Antonio 26h 13' 13 V1M LIKESPORT LURBEL M 162 V1M 7323
483 CHEN Tao 26h 13' 24 SEM MOUNTAIN CITY TRAIL M 224 SEM 7146
484 RAMOS RODRIGUEZ Fermin 26h 13' 44 V2M ESP M 42 V2M 7520
485 GUIBERTEAU Christelle 26h 14' 07 SEF FRA F 36 SEF 7052
486 PELISSIER Patrice 26h 14' 09 V2M FRA M 43 V2M 7203
487 BLASZKIEWICZ Krzysztof 26h 14' 14 V1M FRA M 163 V1M 7543
488 HERITEAU Xavier 26h 14' 26 V1M PORTET ATHLETIC CLUB M 164 V1M 7172
489 GOTTO Samuel 26h 14' 31 V1M NATIXIS M 165 V1M 6821
490 LAVALLEE Beno 26h 14' 33 SEM STADE DE FRANCE M 225 SEM 7045
491 LEROY Julien 26h 15' 54 SEM FRA M 226 SEM 6952
492 BORDIGA Cristiano 26h 16' 52 V1M SPORT ACTIVE M 166 V1M 7015
492 SZYSZKOWSKI Rafal 26h 16' 52 V1M POL M 167 V1M 7473
494 MCLEOD Ross 26h 17' 39 V1M CLAPHAM CHASERS M 168 V1M 6928
495 ROUAULT Olivier 26h 18' 21 V2M JOGGING LOISIR ORGERES M 44 V2M 6544
496 CAI Junying 26h 18' 33 SEM COLUMBIA M 227 SEM 6769
497 FOURNIER Jerome 26h 18' 51 V1M PATRIOTE GUINES M 169 V1M 6344
498 GLENN KOPKA Joakim 26h 20' 39 V1M LONESOME RUNNERS M 170 V1M 7584
499 FRANCK Pascal 26h 20' 47 V3M ASPTT BELFORT TRAIL M 3 V3M 8053
500 BRENIAUX Alexandre 26h 22' 16 SEM AVOC M 228 SEM 6708
501 APFFEL Julien 26h 22' 17 SEM FRA M 229 SEM 6716
502 KULIKOV Roman 26h 22' 36 SEM RUS M 230 SEM 7169
503 VALLET Stephane 26h 22' 41 SEM FRA M 231 SEM 7048
504 DUROCHER Thomas 26h 22' 59 SEM STAUBLI SPORTS M 232 SEM 6615
505 LEUFEN Thomas 26h 23' 31 V2M FRA M 45 V2M 7610
506 KERESZTES Csaba 26h 24' 29 SEM HUN M 233 SEM 7134
507 KOWALIK Andrzej 26h 25' 09 SEM BEZPIECZNY.PL/ BIEG OPOLS M 234 SEM 6679
508 VILLALBA JIMENEZ DE LOS GALANES Jose Maria 26h 26' 07 V1M SOCIEDAD EXCURSIONISTA DE M 171 V1M 7968
509 BURDET Thierry 26h 27' 01 V1M FRA M 172 V1M 6888
509 VALLET Franck 26h 27' 01 V1M AZVEL LETRACEUR M 173 V1M 6920
511 CONSUEGRA LOPEZ David 26h 27' 30 V1M ESP M 174 V1M 7895
512 GAUDRY Stephane 26h 27' 35 V1M FRA M 175 V1M 7719
513 BOURGAIN Michael 26h 28' 20 V1M OPALE TRAIL NATURE 62 M 176 V1M 8189
514 JAVIER LEAL PLATA Francisco 26h 28' 29 SEM ESP M 235 SEM 7671
515 REGNIER Francois 26h 28' 56 V2M AUCUN M 46 V2M 7535
516 PACHECO Paulo 26h 29' 11 SEM #LETSRUNAZORES M 236 SEM 7120
517 CUNHA Alexandre 26h 29' 15 V2M O MUNDO DA CORRIDA M 47 V2M 6810
518 MATEU BOIXADERAS Nis 26h 29' 51 V1M TRAILCERCLATS M 177 V1M 6728
519 MASCARO BAUZA Guillermo 26h 29' 54 V1M TIRANY M 178 V1M 7819
520 FORTUNY MERCADAL Joan 26h 29' 55 V1M ESP M 179 V1M 6807
521 IMAI Chiho 26h 29' 57 V2F ITR F 4 V2F 6665
522 SANCHEZ RIBES Gerard 26h 30' 42 V1M ASS. EXCTA. L'ASPARDENYA M 180 V1M 7874
523 VELTMAN Ari 26h 30' 56 V1M FAT MAN RUNNING M 181 V1M 7346
524 SANCHEZ VERDEGUER Ruben 26h 31' 30 V1M GREEN POWER SPORTS TEAM M 182 V1M 6755
525 PLANTIE Philippe 26h 31' 51 V2M CMBM M 48 V2M 6714
526 ROBIOLIO Gilberto 26h 32' 13 V2M TRAIL RUNNING VALSESSERA M 49 V2M 6756
527 LI Yongqiang 26h 32' 21 V1M JOYMENT M 183 V1M 7387
528 ZEBRAKOWSKA Katarzyna 26h 32' 43 V1F ULTRAMARATONPODKARPACKI.P F 14 V1F 6820
529 WANG Jian 26h 32' 45 V1M CHN M 184 V1M 6949
530 ELLER Thomas 26h 33' 27 V2M LAUFSPASS.COM M 50 V2M 7567
531 NORDFJ LL John 26h 35' 21 V1M SWE M 185 V1M 6862
532 LAPPALAINEN Sami 26h 36' 23 V1M JYVASKYLA TRAIL RUNNERS M 186 V1M 7896
533 MOUSSEUX Benoit 26h 37' 01 V2M ADS LES ARCS M 51 V2M 7519
534 BRAUN Paul Andre 26h 37' 48 V2M DOUDOUE M 52 V2M 7202
535 PERRIN Francois 26h 38' 54 V1M FRA M 187 V1M 8201
536 ABUD Bruno 26h 38' 55 V1M BRA M 188 V1M 7257
537 BALL John 26h 39' 22 V2M GBR M 53 V2M 7699
538 AASRI Taoufiq 26h 39' 40 V1M TIKEHAU CAPITAL M 189 V1M 6625
539 JENNINGS Emma 26h 39' 50 V1F HELM HILL RUNNERS F 15 V1F 6684
540 LEHNERT Yvonne 26h 40' 43 SEF TAI?WIND NUTRITION GERMAN F 37 SEF 6626
541 LEFORESTIER Dominique 26h 41' 03 V2M CLUB MULTISPORT ARECHES B M 54 V2M 6713
542 ROSSETTO Mirko 26h 41' 35 V1M ITA M 190 V1M 7882
543 BERTOLOTTI Gianluca 26h 41' 36 V1M ITA M 191 V1M 7557
544 WANG Yangyang 26h 42' 26 SEM YMT M 237 SEM 6609
545 OGAWA Sota 26h 42' 59 V1M TEAM HOKA M 192 V1M 6042
545 LE SOLLIEC Yann 26h 42' 59 V1M FARTLECK M 193 V1M 6969
547 SANTOS Diogo 26h 43' 49 SEM TEXUGOS DA BRITA M 238 SEM 7013
548 ARTETXE Unai 26h 44' 05 V1M ESP M 194 V1M 7444
549 EUDIER Fabien 26h 44' 06 V1M ASSO SIDEL M 195 V1M 7309
550 GRONDONA Pietro 26h 44' 47 V1M SISPORT M 196 V1M 6643
550 BLANCHETTI Davide 26h 44' 47 SEM DELTA SPEDIZIONI M 239 SEM 6875
550 RONCAGLIOLO Federico 26h 44' 47 SEM SISPORT M 240 SEM 6894
553 MURRU Diego 26h 45' 03 SEM TEAM GAL SPORT M 241 SEM 7038
554 DESLOGES Florent 26h 45' 28 V1M FRA M 197 V1M 6597
555 SANTNER Bernhard 26h 45' 51 V2M ANTON PAAR IN MOTION M 55 V2M 7736
556 ARLETT Ben 26h 46' 58 V1M BRISTOL AND WEST AC M 198 V1M 7493
557 GONcALVES Elisio 26h 46' 59 V1M POR M 199 V1M 6815
558 KACZOREK Marcin 26h 49' 00 V1M KACZOREK M 200 V1M 7163
559 OWEN MCGEE Daniel 26h 49' 04 V1M GBR M 201 V1M 7222
560 SERIFE SERTCELIK Asli 26h 49' 17 SEF SALOMON TURKEY F 38 SEF 8165
561 DIANA John 26h 50' 02 V1M USA M 202 V1M 6329
561 MECHENTEL Pierre 26h 50' 02 V2M FRA M 56 V2M 7517
563 REVESZ Akos 26h 50' 10 SEM HUN M 242 SEM 7039
564 THIBAULT Daniel 26h 50' 35 V2M ENTRAID 49 M 57 V2M 6311
564 GALLENNE Christophe 26h 50' 35 V2M FRA M 58 V2M 7155
566 BRUE PEREZ Albert 26h 51' 02 SEM ESP M 243 SEM 7348
567 HURAULT Thierry 26h 51' 04 V2M BOUGER POUR L'AUTISME M 59 V2M 6930
568 ABRIL FRENER Juan Francisco 26h 52' 00 SEM GUA M 244 SEM 7813
569 LeGER Arnaud 26h 52' 12 SEM FRA M 245 SEM 7566
570 CARMINATI Daniele 26h 52' 40 SEM ITA M 246 SEM 6770
571 WATKINS Natalia 26h 53' 28 V1F GBR F 16 V1F 6407
571 WALTON Mark 26h 53' 28 V1M NZL M 203 V1M 6572
573 RODRIGUEZ GARCIA Jose Ramon 26h 54' 00 V2M AVSTRAIL M 60 V2M 6983
574 NOEL Philippe 26h 54' 39 V1M BOITHEUX M 204 V1M 6735
575 SALDINI Fabio Massimo 26h 54' 42 V2M ROAD RUNNERS CLUB MILANO M 61 V2M 7097
576 AVELINO DE OLIVEIRA Maria Aparecida 26h 54' 59 V1F BRA F 17 V1F 6400
577 RAVOT Frederic 26h 55' 52 V1M FRA M 205 V1M 7180
578 DESTON Franck 26h 56' 34 V1M FRA M 206 V1M 7344
579 CHLADEK Roman 26h 57' 40 V1M RUNSPORT TEAM M 207 V1M 7025
580 DUS Sergiy 26h 57' 44 SEM GBR M 247 SEM 7478
581 LEON TEMPEST Alan 26h 57' 45 SEM ICHASAGUATRAIL M 248 SEM 7613
582 CHAZALON Clement 26h 57' 53 SEM FRA M 249 SEM 6523
583 TRIN Nicolas 26h 57' 57 SEM FRA M 250 SEM 6576
584 VLAANDER Ruben 26h 58' 25 SEM NED M 251 SEM 7049
585 LE TEXIER Yvonnick 26h 58' 26 SEM FRA M 252 SEM 6907
586 MORLAND Isabelle 26h 58' 35 V2F FRA F 5 V2F 6699
587 PASGAARD Thomas 26h 58' 49 V1M TEAM FUSION M 208 V1M 7152
588 NICOLLE Franck 26h 58' 59 V2M FRA M 62 V2M 6850
589 UGUEN Pascal 26h 59' 37 V2M LES TROTTEURS DE LA PENZE M 63 V2M 6573
590 SILVA Helder 26h 59' 48 V1M MIRANDELAACORRER M 209 V1M 7550
591 LITE Marc 26h 59' 49 V1M FIRMAMENTO M 210 V1M 7179
592 SACRISTAN Mariano 26h 59' 50 V1M ESP M 211 V1M 7108
593 LAZI Nenad 27h 00' 04 V2M MKD M 64 V2M 8023
594 KAISER Krzysztof 27h 00' 45 SEM POL M 253 SEM 7197
595 ALEX Remi 27h 01' 14 SEM FRA M 254 SEM 7761
596 CONLON Toby 27h 01' 35 SEM GBR M 255 SEM 7426
597 TSENG Wei Ling 27h 02' 18 SEF TPE F 39 SEF 6447
598 SAISA ARD Sanporn 27h 04' 27 V1M POTTO RUN M 212 V1M 7609
598 PETCHKUL Tanes 27h 04' 27 V2M THA M 65 V2M 7994
600 VERA KAY Elena 27h 04' 36 V1F SA MILANA ALARO F 18 V1F 6711
601 JAHAN Marc 27h 04' 41 SEM SUI M 256 SEM 6702
602 PERRAD Patrice 27h 05' 00 V2M FRA M 66 V2M 7364
603 MATSUMOTO Sayaka 27h 05' 24 SEF JPN F 40 SEF 6348
604 GALLARDO CABALLERO Rafael Carmelo 27h 05' 49 V1M GIRONBIKE CANTINAZAPATA T M 213 V1M 6561
605 LEUNG Ka Lun 27h 07' 02 SEM HKG M 257 SEM 7822
606 PARENT Cedric 27h 07' 20 V1M L'OREAL M 214 V1M 6675
607 WYITHE James Stuart 27h 07' 25 V1M AUS M 215 V1M 6334
608 DALLAVALLE Manuela 27h 07' 26 V2F MUD & SNOW TEAM ASD F 6 V2F 6731
609 LEVY Sarah 27h 09' 49 SEF FRA F 41 SEF 6933
610 PLENECASSAGNE Yannick 27h 10' 24 V1M FRA M 216 V1M 7106
611 HOSHINO Katsushige 27h 10' 36 V1M DAC M 217 V1M 8157
612 DELANOE Ronan 27h 10' 54 V1M TEAM TRAIL PARIS M 218 V1M 7231
613 THOMERSON Martin 27h 11' 28 V1M WARRINGTON RUNNING CLUB M 219 V1M 7883
614 WEBB Brandon 27h 11' 29 V1M LINGFIELD RUNNING CLUB M 220 V1M 7217
615 SHAGIN Yuriy 27h 11' 32 V1M RUS M 221 V1M 7787
616 MAZZETTA Anna 27h 11' 37 V2F TARTARUGHE DELLA KIRGHISI F 7 V2F 6774
617 CHENG Dan 27h 12' 01 SEF HKG F 42 SEF 8160
618 FABReGUE Remi 27h 13' 04 SEM FRA M 258 SEM 6819
619 CHAFFEY James 27h 13' 07 V1M GBR M 222 V1M 7481
620 VITASSE Fernando Luis 27h 14' 42 SEM GEP TEAM M 259 SEM 6761
621 SKEDGELL Steve 27h 14' 58 V1M PURETRAIL / TRAIL RUNNING M 223 V1M 7115
622 PASINI Alexandre 27h 15' 08 V1M SUI M 224 V1M 7834
623 CONTI Andrea 27h 15' 29 V1M ATLETICA 75 CATTOLICA M 225 V1M 7160
624 GOGLINO Marco 27h 15' 39 SEM ERGUS TRAIL TEAM M 260 SEM 7414
625 FASSEL Olivier 27h 15' 50 V1M TRAIL DU HAUT KOENIGSBOUR M 226 V1M 7145
626 JUDITH Charles 27h 16' 16 SEM FRA M 261 SEM 7731
627 SLATER Douglas 27h 16' 43 V1M GBR M 227 V1M 7721
628 SPENCER Chris 27h 16' 44 SEM MAVERICK TRAIL DIVISION M 262 SEM 8183
629 FOSSARD Mathieu 27h 16' 47 SEM FRA M 263 SEM 7717
630 THIMMER Peter 27h 16' 57 V1M Thimmer tours M 228 V1M 7527
631 BOLIS Jean Marie 27h 18' 39 V1M FRA M 229 V1M 7689
632 SCHILLINGER Laurent 27h 18' 53 V2M D'RANNER M 67 V2M 7156
633 SEKI Yuichi 27h 19' 01 V1M JPN M 230 V1M 7087
634 ZELENKOVA Klara 27h 19' 11 SEF SRTG PRAHA F 43 SEF 6914
635 JIMeNEZ COLLADO Raul 27h 19' 15 SEM ESP M 264 SEM 7313
636 HAN HSIEH Meng 27h 19' 40 SEM TPE M 265 SEM 7398
637 GUILLOT Clement 27h 20' 24 V1M FRA M 231 V1M 7385
638 BARACH Geraud 27h 20' 25 V1M FRA M 232 V1M 7532
639 SAVIN Didier 27h 20' 59 V2M FRA M 68 V2M 6923
640 CHAUVRIS Richard 27h 21' 01 V1M TRAILEURS NORMANDS M 233 V1M 7690
641 VERA Jairo 27h 21' 02 SEM ECU M 266 SEM 7121
642 HOARAU Julien 27h 21' 10 SEM FRA M 267 SEM 7271
643 ZILLER Christian 27h 21' 52 V1M TEAM WAZA M 234 V1M 7363
644 LAGRANGE Matthieu 27h 23' 58 V1M FRA M 235 V1M 6322
645 DUCRET Laurent 27h 24' 06 V1M SMAC M 236 V1M 7199
646 VIGNE Patrice 27h 24' 21 SEM FORMRIDER ANNECY M 268 SEM 7073
647 THIEL Jerome 27h 24' 23 V1M BESANCON TRIATHLON M 237 V1M 7454
648 COUSIN Eric 27h 24' 32 V1M FREE RUNNERS M 238 V1M 6765
649 RUEDIN Bertrand 27h 24' 51 V2M SUI M 69 V2M 7562
650 GABILLAULT Philippe 27h 24' 59 V2M FRA M 70 V2M 7499
651 MoRCK Johan 27h 25' 08 V1M MIKKELLER RUNNING CLUB M 239 V1M 7824
652 MORO Terry 27h 25' 19 V2M LE BER M 71 V2M 7487
653 COMPAGNON Francois 27h 25' 26 V2M FRA M 72 V2M 7498
654 DUBOIS Mathieu 27h 26' 10 SEM FRA M 269 SEM 6915
655 HOUSTON Greg 27h 26' 20 V1M USA M 240 V1M 6316
656 PERRIN Herve 27h 26' 24 V1M FRA M 241 V1M 7395
657 GUICHON Stephane 27h 26' 31 V1M FRA M 242 V1M 6910
658 BARTOZZI Pierre 27h 26' 37 SEM FRA M 270 SEM 7117
659 ORTIZ LAZARO Rafael 27h 26' 40 V1M C.A.MARJANA CHIVA M 243 V1M 7281
660 SEILLER Thierry 27h 26' 41 V1M TEAM COM / ASL LA ROBERTS M 244 V1M 6483
661 HARUNA Shota 27h 28' 35 SEM KONOSU RRC M 271 SEM 7757
662 BYRNE David 27h 29' 03 V1M GBR M 245 V1M 7617
663 JULISSON Gunnar 27h 29' 40 V1M ISL M 246 V1M 7401
664 BURKE Mike 27h 30' 13 V2M GBR M 73 V2M 6957
665 ELGOYHEN Guillaume 27h 30' 27 SEM FRA M 272 SEM 7508
666 CIURASZKIEWICZ Andrzej 27h 30' 39 V1M IRON4ULTRA M 247 V1M 6993
667 KOWALSKI Andrzej 27h 30' 40 V2M POL M 74 V2M 7305
668 TRINCART Tony 27h 31' 47 SEM FRA M 273 SEM 7372
669 CASAMITJANA Maxime 27h 32' 00 SEM FORCA TRAIL M 274 SEM 6797
670 DELHOMME Dominique 27h 33' 00 V3M ES COUERON M 4 V3M 7521
671 BIENIECKA Anna 27h 33' 07 SEF POL F 44 SEF 6421
672 MCPHERSON Andrew 27h 33' 30 V1M GBR M 248 V1M 7909
673 BEAUCHARD Cedric 27h 34' 30 V1M FRA M 249 V1M 7080
674 SOUQUE Guilhem 27h 34' 46 V1M SAONE MONT D'OR NATURE M 250 V1M 7668
675 HERBRETEAU Stephane 27h 34' 48 V1M FRA M 251 V1M 7213
676 DUCOURTIOUX Rachel 27h 34' 53 V2F FRA F 8 V2F 6940
677 PUT Willem 27h 35' 29 SEM BEL M 275 SEM 6935
678 WADOUX Cedric 27h 35' 38 V1M TRAILERS NORMANDS M 252 V1M 7474
679 LIANG Jing 27h 37' 47 SEM CHN M 276 SEM 6057
680 PELISSON Marc 27h 38' 27 V2M USCB M 75 V2M 7500
681 HERBERT Laurent 27h 38' 48 V1M FRA M 253 V1M 7765
682 PINGHUA Han 27h 39' 32 V1M JOYMENT M 254 V1M 7260
683 FLAVENOT Valentin 27h 40' 02 SEM FRA M 277 SEM 7764
684 FLORI Jean Pierre 27h 40' 03 SEM FRA M 278 SEM 7427
685 BRUPBACHER Debbie 27h 42' 09 V1F GBR F 19 V1F 6744
686 MUNRO John 27h 43' 46 V2M GBR M 76 V2M 7340
687 KOWALSKI BARYSZNIKOW Mikolaj 27h 43' 53 SEM KINGRUNNER.COM M 279 SEM 6487
688 MAILLET Philippe 27h 44' 07 V1M CA VIERZON M 255 V1M 7214
689 RICHARD Jean Francois 27h 44' 10 V1M FRA M 256 V1M 6772
690 HOUSTIN Vincent 27h 44' 35 V1M FRA M 257 V1M 6667
690 MASCLAU Herve 27h 44' 35 V1M FRA M 258 V1M 6830
692 RICCARDI Omar 27h 44' 39 V1M ATLETICA VALPELLICE LND M 259 V1M 6719
693 PUJOL Vincent 27h 44' 48 V2M FRA M 77 V2M 7312
694 SIMON Stephane 27h 45' 02 V1M FRA M 260 V1M 7735
695 SHI Zhihua 27h 45' 24 SEM JOYMENT M 280 SEM 7782
696 YI Songwei 27h 45' 35 V1M TEAM TSAIGU M 261 V1M 7274
697 GAUTHIER Thomas 27h 45' 50 SEM FRA M 281 SEM 8003
698 FRACHETTE Pierre 27h 46' 47 SEM FRA M 282 SEM 7183
699 BRICE Eric 27h 47' 22 V2M CMBM M 78 V2M 7533
700 B HL Magnus 27h 48' 17 V2M DUV ERFOLGSMATRIX.DE M 79 V2M 7347
701 VINCENT Nicolas 27h 48' 36 V1M FRA M 262 V1M 7685
702 LEITH Hannah 27h 48' 57 SEF GBR F 45 SEF 6964
703 GODFRIN Bertrand 27h 49' 08 V1M FRA M 263 V1M 7161
704 CATIN Mathieu 27h 49' 20 SEM TEAM ANJOU SWIMRUN M 283 SEM 7626
705 SPECHT Miko aj 27h 49' 26 V1M POL M 264 V1M 7240
706 MARILL Laurens 27h 49' 31 SEM FRA M 284 SEM 7577
707 ROLLE Fabien 27h 49' 35 SEM FRA M 285 SEM 6584
708 CAUSSE Stephane 27h 49' 43 V2M FRA M 80 V2M 6302
709 CLOPON Stephane 27h 50' 00 V1M FRA M 265 V1M 7249
710 ZHONG Ming 27h 50' 17 SEM ROCHE M 286 SEM 7732
711 MAKOWSKI Maciej 27h 50' 37 V2M POL M 81 V2M 7845
712 PEZZOTTA Fabien 27h 50' 57 V1M LES ECLATES PERUWELZIENS M 266 V1M 7559
713 HERIN Romano 27h 51' 19 V2M A.D.PONT SAN MARTIN M 82 V2M 7076
714 ALLERS Martins 27h 52' 08 V1M LAT M 267 V1M 7708
715 GRAILLE Jeremie 27h 52' 15 SEM ASSP VERGEZE M 287 SEM 7140
716 BRAISE Karl 27h 53' 35 V1M FRA M 268 V1M 6992
717 GOURON Eddy 27h 53' 41 SEM VEO 2000/ INTERSPORT M 288 SEM 7371
718 BONANSEA Enrico Maria 27h 53' 55 V2M POD. VALLE INFERNOTTO M 83 V2M 6837
718 CARDELLINO Dario 27h 53' 55 V1M POD. VALLE INFERNOTTO M 269 V1M 7067
720 JOASSART Martin 27h 54' 31 V1M BEL M 270 V1M 7061
721 LAMBERT Sydney 27h 56' 01 SEF USA F 46 SEF 6375
722 REINHOLD Fredrik 27h 56' 20 V1M SVALHOGENS IF M 271 V1M 7586
723 ETHEVE Remy 27h 56' 50 SEM UA SOCIETE GENERALE M 289 SEM 6616
724 PICOT Antoine 27h 57' 21 V2M ACVA M 84 V2M 7223
725 VAN TROYS Eric 27h 58' 49 V1M FRA M 272 V1M 7071
726 GARLICK Steven 27h 59' 57 V2M VOCALINK M 85 V2M 7485
727 BONNAT Christophe 28h 01' 46 V1M FRA M 273 V1M 7273
728 LAMBERTI Riccardo 28h 03' 48 V2M Podistica Valle Varaita M 86 V2M 8217
729 DEUTSCH Reynald 28h 03' 55 V1M FRA M 274 V1M 6994
730 LAJARIN Antonia 28h 05' 11 V1F C.C.BICIS BURU F 20 V1F 8169
731 PeREZ RODRIGUEZ Olatz 28h 05' 19 SEF SA MILANA F 47 SEF 6647
732 KARRAS Alexandre 28h 06' 25 V1M PLESSIS ROBINSON AC M 275 V1M 7655
733 POCHON Maxime 28h 06' 49 SEM PASSPARTOUT TRAILERS DU J M 290 SEM 7540
734 DE MARNIX Guillaume 28h 09' 37 SEM BEL M 291 SEM 7798
735 LOPEZ PAREDES Mauricio 28h 10' 55 V1M MEX M 276 V1M 6873
736 MOUNIER Franck 28h 11' 16 V1M FRA M 277 V1M 7403
737 AGUERRE Jean Paul 28h 12' 29 V2M FRA M 87 V2M 7422
738 KLIEMANN Stefan 28h 12' 30 SEM LG MAUERWEG EV M 292 SEM 7008
739 PICCOLO Romain 28h 12' 40 SEM FRA M 293 SEM 8011
740 MONDANI Corinna 28h 14' 06 SEF ITA F 48 SEF 6652
740 TAGLIAFERRI Manuela 28h 14' 06 V1F ASD PASSPORT F 21 V1F 6658
742 BIASINI Paolo 28h 14' 07 V2M ITA M 88 V2M 7484
743 LAMBORELLE Michel 28h 14' 50 V2M BEL M 89 V2M 7290
744 COSSU Andrea 28h 15' 25 V1M ITA M 278 V1M 6961
745 AFONSO Pedro 28h 16' 03 SEM CLUB PEDRA DO ACORDO M 294 SEM 6502
746 CETNAROWSKI Marcin 28h 16' 28 V1M POL M 279 V1M 7494
747 FOURNAT Francine 28h 16' 48 V2F FRA F 9 V2F 6801
748 CHEN Wenda 28h 17' 02 V1M CHN M 280 V1M 6569
749 HENTINGER Johann 28h 17' 06 V1M FRA M 281 V1M 7606
750 DISPAS Celine 28h 18' 15 V1F JIA F 22 V1F 6688
751 DIERENS Dennis 28h 18' 17 V1M JOG'INATTITUDE M 282 V1M 7806
752 MIGEON Jean Yves 28h 18' 23 V2M FRA M 90 V2M 7167
753 CARDOU Sebastien 28h 19' 11 SEM FRA M 295 SEM 7350
754 NALLET Xavier 28h 19' 34 V1M FRA M 283 V1M 7633
755 NOTARY Sylvie 28h 20' 05 V1F ES BLANQUEFORT F 23 V1F 6897
756 CLABE PIQUET Didier 28h 20' 09 V1M ES BLANQUEFORT M 284 V1M 7059
757 SIBIRIL Carole 28h 21' 16 V1F AC PENVENAN F 24 V1F 6790
758 BARILLI Marco 28h 21' 23 V1M ITA M 285 V1M 6946
759 TONTI Daniele 28h 21' 24 V1M G.P.A.SAN MARINO M 286 V1M 6890
759 ERMETI Francesco 28h 21' 24 V1M RIMINIMARATHON M 287 V1M 7070
761 MAZUECOS Ismael 28h 21' 33 SEM CDR SACUETE INFELIZ M 296 SEM 8179
762 JEGOUIC Alexis 28h 21' 51 SEM GRAVITY RUNNING EXPERIENC M 297 SEM 7176
763 SZOTOWICZ Sebastian 28h 22' 34 SEM SZWLA STARGARD / POLSKA M 298 SEM 6877
764 PIN Michael 28h 23' 05 SEM CARIOCAR M 299 SEM 7441
765 MARFIL PINERO Silvia 28h 25' 03 V1F ALPINO BENALMADENA IRONTR F 25 V1F 6525
765 PORTALES SEPULVEDA Javier 28h 25' 03 V1M Grupo Alpino Benalmadena M 288 V1M 6963
767 SEMEDO Edouard 28h 25' 36 V1M ACP ATHLETIQUE CLUB PHOCE M 289 V1M 7338
768 DESSUREAULT Francois 28h 27' 27 V1M CLUB TRAIL 3 R M 290 V1M 7069
769 BELL Brian 28h 28' 02 V2M IRL M 91 V2M 7659
770 HOSMANS Tony 28h 28' 32 V1M OUTDOOR ACTIVITIES FACTOR M 291 V1M 7137
771 VASSAUX Stephane 28h 30' 27 V1M FRA M 292 V1M 7455
772 BROCKMAN Charlotte 28h 30' 45 SEF CAN F 49 SEF 6598
773 ANTIGNY Fabrice 28h 30' 53 SEM FRA M 300 SEM 7370
774 QUAIRIAUX Charles 28h 30' 54 V1M SUI M 293 V1M 7297
775 AMBROISE Philippe 28h 31' 30 V2M VO2 RIVES DE SEINE M 92 V2M 7593
776 DONA Giordano 28h 32' 10 V3M ATLETICA LESSONA VC021 M 5 V3M 7367
777 MADELIN Hippolyte 28h 32' 54 SEM LRDC M 301 SEM 7622
778 COUPE Anthony 28h 33' 52 V1M RUN LAND M 294 V1M 6844
779 TEKAYA Emmanuel 28h 33' 54 V1M FRA M 295 V1M 7679
780 GLEIZES Etienne 28h 34' 18 SEM FRA M 302 SEM 7378
781 PAVIET Antoine 28h 34' 19 SEM FRA M 303 SEM 7578
782 CANTERLA FERNANDEZ Jorge 28h 34' 54 SEM G.M.M.N TREPAMUNDO M 304 SEM 6943
783 VARSESCU Monica 28h 35' 08 SEF TEAM RUN F 50 SEF 6637
784 ULRICH Pierre 28h 35' 42 V1M FRA M 296 V1M 6320
785 ULRICH Evelyne 28h 35' 43 V1F FRA F 26 V1F 6308
786 LIU Yang 28h 37' 11 SEM CHN M 305 SEM 7314
787 YUXUAN ZHU Vicki 28h 37' 12 SEF SGP F 51 SEF 6839
788 CHARTIER KASTLER Cyrille 28h 38' 01 V2M HORS STADE M 93 V2M 7788
789 BARNES Andrew 28h 38' 36 V2M RSA M 94 V2M 7770
790 LANNIAUX Jerome 28h 38' 53 V1M FRA M 297 V1M 7947
791 JAYMOND Romain 28h 39' 04 SEM FRA M 306 SEM 7275
792 ASSOUMANI Alexandra 28h 39' 40 V1F FRA F 27 V1F 6466
793 WILKINSON James 28h 41' 14 V1M GBR M 298 V1M 7712
794 LE DORTZ Romain 28h 41' 21 SEM FRA M 307 SEM 7612
795 WIERSTRA Mark 28h 42' 07 SEM TRAIL TEAM FRYSLAN M 308 SEM 7930
796 WIJMA Willem 28h 42' 13 SEM TRAIL TEAM FRYSLAN M 309 SEM 7467
797 JAKOBI Hugo 28h 42' 27 SEM LAT M 310 SEM 7141
798 DEBIE Karen 28h 42' 39 V1F BEL F 28 V1F 7382
799 ALLMAN Tim 28h 42' 59 V1M GBR M 299 V1M 6953
800 WITTON John 28h 43' 01 V1M SEVENOAKS AC M 300 V1M 7266
801 SIKORA Grzegorz 28h 43' 06 V1M MCBIEGACZ M 301 V1M 7693
802 LANXADE Thibault 28h 43' 22 V1M FRA M 302 V1M 7954
803 ANGLISTER David 28h 43' 23 V2M FRA M 95 V2M 7970
804 LAROCHE Jean Bertrand 28h 43' 25 V2M FRA M 96 V2M 7941
805 JEDRASZEK Alicja 28h 43' 29 V1F coemi.eu F 29 V1F 6624
806 ARTAM Can 28h 44' 10 SEM TUR M 311 SEM 7065
807 SHAR Greg 28h 44' 38 SEM AUS M 312 SEM 7417
808 BALZATEGI Aitor 28h 47' 37 V1M BESAIDE M 303 V1M 7480
809 JAKUB KRAUSE Tomasz 28h 48' 36 SEM POL M 313 SEM 6749
810 LARIVAARA Visa Pekka 28h 49' 11 V1M NORTHERN TRAIL RUNNERS M 304 V1M 7083
811 FONG WONG Sek 28h 49' 34 V3M SGP M 6 V3M 7425
812 FABIAN APOLINAR BOCANEGRA Oscar 28h 49' 36 SEM SALOSCAR TEAM M 314 SEM 6941
813 DOLCI David 28h 50' 55 SEM FRA M 315 SEM 6965
814 TYLER Robert 28h 52' 23 SEM GBR M 316 SEM 7513
815 BRIGHAM David 28h 52' 24 SEM HEATON HARRIERS M 317 SEM 6986
816 FREIRE Gregory 28h 53' 07 V1M FRA M 305 V1M 7654
817 MERCIER Nicolas 28h 53' 23 SEM FRA M 318 SEM 7861
818 KERNEL Emmanuel 28h 55' 52 V1M CMBM M 306 V1M 6898
819 LUBIENSKI Wojciech 28h 56' 08 V1M POL M 307 V1M 8197
820 HENTY Chris 28h 58' 33 V1M CARNETHY HRC M 308 V1M 7850
821 PINAULT Philippe 28h 59' 10 V1M FRA M 309 V1M 7891
822 HELMER Cedric 28h 59' 17 V1M ASCPA TRAIL STRASBOURG M 310 V1M 7376
823 KLEIN Lionel 29h 00' 13 SEM FRA M 319 SEM 7999
824 BRAMBILLA Massimo 29h 00' 32 V2M ASD CARVICO SKY RUNNING M 97 V2M 6504
825 BELT Antti 29h 01' 15 SEM AJOKOIRAT M 320 SEM 8054
826 SIX Nicolas 29h 01' 39 V1M FRA M 311 V1M 7355
827 VEGA VARGAS Guillermo 29h 01' 46 SEM TRITON MULTISPORT M 321 SEM 7623
828 LEI ZHENG Xin 29h 02' 23 V1F CHN F 30 V1F 6869
829 FEIJO Fabiano 29h 03' 01 V1M BRA M 312 V1M 7946
830 PATTISON Gary 29h 03' 29 SEM GBR M 322 SEM 6661
831 GILBERT Andrew 29h 04' 33 V2M USA M 98 V2M 7042
832 BARTOLETTI Angelo 29h 04' 37 V1M ASCD SILVANO FEDI M 313 V1M 6829
833 SANTORO Domenico 29h 04' 38 V1M ITA M 314 V1M 6939
834 TISSEYRE David 29h 05' 29 SEM FRA M 323 SEM 6976
835 PERESSE Marc 29h 05' 30 V1M FRA M 315 V1M 7304
836 CERNEVSKA Lauma 29h 05' 43 SEF LAT F 52 SEF 7007
837 DAMELINCOURT Nicolas 29h 06' 02 V2M FRA M 99 V2M 7252
838 PINTO Jeremy 29h 06' 05 SEM EAMYA M 324 SEM 6490
839 J KELLY Michael 29h 06' 19 V2M DERG AC M 100 V2M 7174
840 MIL GAYA Xavier 29h 06' 23 V1M CEP PENEDES M 316 V1M 7302
841 ESPI DIAZ Antonio 29h 06' 24 V1M HCB M 317 V1M 7016
842 COIFFARD Gaetan 29h 06' 28 V1M ACPA ANCENIS M 318 V1M 7495
843 WU Gang 29h 07' 05 V1M GLOBAL RUNNER FACE CUTE M 319 V1M 7362
844 OLIVIER Jacques 29h 07' 16 V2M FRA M 101 V2M 7802
845 LECLERC Vincent 29h 07' 44 SEM DIJON SINGLETRACK M 325 SEM 6833
845 NICOLAS Marc Alfred 29h 07' 44 V1M COACH RUNNING M 320 V1M 8199
847 FORTUNATO Giulio 29h 09' 27 V2M NEW PHYSICAL CENTER 90 M 102 V2M 7742
848 DELETRAZ Pierre 29h 10' 23 V3M FRA M 7 V3M 7669
849 DANIEL GUALDRON ROMERO Pablo 29h 10' 50 SEM COL M 326 SEM 8036
850 FIRDAUS Rhenaldi 29h 11' 59 ESM BANDUNG EXPLORER M 3 ESM 6856
851 TERRIER Adrien 29h 13' 00 SEM FRA M 327 SEM 7915
852 GUILLONNET Dominique 29h 13' 50 V2M FRA M 103 V2M 7534
853 MALLEGOL Nicolas 29h 14' 01 V1M FRA M 321 V1M 7585
854 TEPPE Viviane 29h 14' 25 V2F ND2BR F 10 V2F 6848
855 LAVILLAT Bernard 29h 15' 01 V3M CAF ANNECY M 8 V3M 8010
856 TASSINARI Fred 29h 16' 06 V1M CAN M 322 V1M 7241
857 CHANVILLARD Matthieu 29h 16' 29 V1M FRA M 323 V1M 7037
858 HERMANN Julien 29h 16' 32 SEM FRA M 328 SEM 7066
859 VAN REEN Gijs 29h 17' 53 V1M NED M 324 V1M 7926
860 SKOROVS Peteris 29h 18' 56 V1M Team Raidlight M 325 V1M 8052
861 PATARI Simo 29h 19' 10 V1M TELIA RUNNERS FINLAND M 326 V1M 7516
862 SMITH Marius 29h 19' 25 SEM GBR M 329 SEM 8031
863 ULIANA Muriel 29h 19' 49 V2F TEAM ENDURANCE SHOP VILLE F 11 V2F 7196
864 HOS Alain 29h 19' 54 V1M BEL M 327 V1M 7583
865 IBOUTH Jean Philippe 29h 20' 02 V2M USM GAGNY M 104 V2M 7957
866 CHAYE Bruno 29h 20' 29 V3M RUN ACCUEIL LA ROCHELLE M 9 V3M 7886
867 PONOMAREV Aleksey 29h 21' 21 V1M PEDALKI M 328 V1M 7028
868 BURTON Paul 29h 21' 23 V1M GBR M 329 V1M 7301
868 RAMAZANOV Aleksandr 29h 21' 23 SEM RUS M 330 SEM 7688
870 CROSSARD Ludovic 29h 22' 04 V1M FRA M 330 V1M 6766
871 CHING Raymond 29h 22' 31 V1M TEAM COLUMBIA HK M 331 V1M 6327
872 WANG Lichao 29h 23' 53 SEM INVICTUS MANEO M 331 SEM 8032
873 FENARD Jonathan 29h 24' 59 SEM FRA M 332 SEM 7539
873 ARNAULT Stephane 29h 24' 59 V2M FRA M 105 V2M 7777
875 ADAIR Harry 29h 25' 40 V2M GBR M 106 V2M 7865
876 GAPAILLARD LEMOINE Katia 29h 26' 18 V1F A3ALENCON F 31 V1F 7100
877 LASSARA Jean Marc 29h 27' 04 V2M SANS BORNES ST DIDIER S/C M 107 V2M 6903
878 RAISON Michel 29h 28' 28 V2M FRA M 108 V2M 7644
879 MARINOVIC Tomislav 29h 29' 21 SEM ULTRAMARATON KLUB MAZATOR M 333 SEM 6635
880 EUGEN IONITA Bogdan 29h 29' 45 V1M ROU M 332 V1M 7903
881 GARCIA GNECCO Santiago 29h 30' 13 SEM URKU M 334 SEM 7408
881 JAVIER COSENTINO Santiago 29h 30' 13 V1M ARG M 333 V1M 7698
883 DVORAK Claire Anne 29h 30' 28 SEF LA FOULEE DE BUSSIGNY F 53 SEF 6804
884 VILELA Fernando 29h 30' 58 V2M MILLENNIUMBCP M 109 V2M 7168
885 MARCOS Olivier 29h 31' 41 V1M FRA M 334 V1M 7964
886 LE DIEU Xavier 29h 32' 05 V1M ASSO SIDEL HAC TRI M 335 V1M 7864
887 ANTONIO SIERRA QUERENCIA Jose 29h 32' 09 V2M TIERRA TRAGAME M 110 V2M 7827
888 PeREZ GOMEZ Manuel 29h 32' 12 V2M TIERRA TRAGAME M 111 V2M 7744
889 ARMANINI Oscar 29h 32' 43 V1M GRIVEL TEAM M 336 V1M 7792
890 HUBNER Xavier 29h 32' 48 V1M FRA M 337 V1M 6872
891 MARTIN Remi 29h 32' 50 SEM FRA M 335 SEM 7351
892 COTTREAU Jean Daniel 29h 33' 03 V3M FRA M 10 V3M 7847
893 VITOLA Alma 29h 33' 05 SEF Riga Stradins University F 54 SEF 6646
894 DI GIANNANTONIO Gianluca 29h 34' 37 V2M TRAIL MONTI SIMBRUINI M 112 V2M 7859
895 SUZUKI Hidekazu 29h 35' 25 V1M JPN M 338 V1M 7116
896 ALLEN Matthew 29h 36' 20 V1M VALLEY STRIDERS AC M 339 V1M 7515
897 GEFFRAULT Mickael 29h 36' 24 SEM FRA M 336 SEM 6934
898 VIOLET Jean Philippe 29h 36' 25 V2M FRA M 113 V2M 7341
899 ORSAT Lionel 29h 36' 38 V2M CAF HAUT GIFFRE M 114 V2M 7743
900 HEARNE Matthew 29h 36' 39 V1M SERPENTINE M 340 V1M 7232
901 DUNSTAN Matthew 29h 36' 41 V1M GBR M 341 V1M 7667
902 HU Qiancai 29h 36' 44 SEM CHN M 337 SEM 7628
903 ADACHI Ryuta 29h 37' 19 SEM JPN M 338 SEM 7243
904 LI Ming 29h 37' 51 V1M CHN M 342 V1M 7185
905 MORCHAIN Christophe 29h 37' 52 V1M FRA M 343 V1M 8111
906 NICOLLET Julie 29h 38' 11 SEF CMBM F 55 SEF 6506
907 AGNOLETTI Maurizio 29h 38' 46 V2M TEAM MARATHON BIKE M 115 V2M 6503
907 GERMAIN Cyrille 29h 38' 46 V1M FRA M 344 V1M 7124
909 HERRERO Pedro 29h 39' 17 V1M SALAMANCA RAIDS AND TRAIL M 345 V1M 7322
910 ESPINOSA SANCHEZ Rosario 29h 39' 19 V1F SALAMANCA RAIDS AND TRAIL F 32 V1F 6541
911 BIANCHI Frederic 29h 39' 36 V2M FRA M 116 V2M 8115
912 CORNIER Jerome 29h 40' 04 V1M FRA M 346 V1M 7321
913 COLSON David 29h 40' 17 SEM TDCH M 339 SEM 7293
914 LECLERC Philippe 29h 42' 00 SEM RUN IN PRUNAY M 340 SEM 7229
915 BOUYER Adrien 29h 42' 29 SEM CAP NATURE BEAULIEU M 341 SEM 7727
916 FRATIANNI Alessia 29h 42' 30 SEF ITA F 56 SEF 6563
916 O'NEILL Deirdre 29h 42' 30 V1F IRL F 33 V1F 7277
918 NITA Eugen 29h 42' 32 SEM ROU M 342 SEM 7663
919 MONROLIN Johann 29h 42' 46 V1M ALL JURA TRAIL M 347 V1M 7734
920 DARON Michael 29h 42' 52 V1M ARCH M 348 V1M 7438
921 THIRIET Fabien 29h 43' 00 V1M COURIR LE MONDE M 349 V1M 7339
922 LEDERMANN Samuel 29h 43' 07 V1M FRA M 350 V1M 6753
923 GARRIGUE Thierry 29h 43' 08 V1M RUN&MOI M 351 V1M 7136
924 CHAPOT Germain 29h 44' 32 SEM FRA M 343 SEM 7002
925 PAULAT Marion 29h 47' 21 V1F SALEVE TRAIL F 34 V1F 6602
925 CHEYNET Sebastien 29h 47' 21 V1M SALEVE TRAIL M 352 V1M 7285
927 CARREE Mael 29h 47' 26 V1M FRA M 353 V1M 7982
928 PONG WALTER IP Kim 29h 47' 57 V1M PEAK CHASER M 354 V1M 8086
929 WAI DOMINIC LEE Cheuk 29h 48' 41 SEM HKG M 344 SEM 7672
929 REUTER Steffen 29h 48' 41 V1M GER M 355 V1M 7678
931 GOENAGA BeNat 29h 48' 45 SEM AURRERA M.T. M 345 SEM 8173
932 ALCAIDE Mickael 29h 48' 56 V1M FRA M 356 V1M 7718
933 BIGO Jean Baptiste 29h 49' 37 SEM DEFILEASE TEAM M 346 SEM 6775
933 RYCKEWAERT Xavier 29h 49' 37 SEM FRA M 347 SEM 7924
935 ALIPHON Gael 29h 49' 56 V1M MRI M 357 V1M 8069
936 VIGER Romain 29h 51' 06 SEM FRA M 348 SEM 6639
936 ROUILLARD Ludovic 29h 51' 06 V1M FRA M 358 V1M 7575
938 SULAIMAN Shahril 29h 55' 39 V2M MAS M 117 V2M 7447
939 GUILLAME Lucie 29h 55' 52 SEF FRA F 57 SEF 6564
940 VALSESIA Andrea 29h 55' 57 V1M A.S.D. Trail Running M 359 V1M 7063
941 KANEKO Takeshi 29h 56' 09 V2M JPN M 118 V2M 7568
942 MICHAT Axel 29h 56' 33 SEM RUNNING CLUB DE COLOMBIER M 349 SEM 6834
942 TROMBERT Fabrice 29h 56' 33 SEM TAC M 350 SEM 7452
944 BERNEKING Dirk 29h 56' 40 V2M GER M 119 V2M 7713
945 AMIEL Francois Xavier 29h 56' 50 V1M FRA M 360 V1M 7664
946 PARIS Jerome 29h 56' 52 SEM FRA M 351 SEM 7399
947 HARRIES Andrew 29h 56' 56 V2M GBR M 120 V2M 7714
948 ALESSANDRINI Roberto 29h 57' 19 V3M ATLETICA ENTELLA RUNNING M 11 V3M 6826
949 PITOU Axel 29h 58' 53 V2M FRA M 121 V2M 6481
950 TRAMIER Christophe 29h 59' 14 V2M FRA M 122 V2M 7912
951 PAGNUSSAT Gilles 29h 59' 21 SEM CANTINA DA PAJER M 352 SEM 6852
952 LAVIER Matthieu 29h 59' 22 SEM NUITS COURSE A PIED M 353 SEM 7119
952 MIGNARDOT Eric 29h 59' 22 V2M NUITS COURSE A PIED M 123 V2M 7439
954 DI DOMENICO Jeremy 29h 59' 55 V1M LA CADIERE M 361 V1M 6937
955 KINCER Rafal 30h 00' 47 V1M POL M 362 V1M 7907
956 DIOUJAKOV Aleksei 30h 00' 51 V1M DO NOT TIME FOR SMILING M 363 V1M 7906
957 CHIBISOV Vitalii 30h 00' 52 V2M RUS M 124 V2M 7588
958 GUINAND Yann 30h 01' 01 SEM SUI M 354 SEM 7208
959 LASFARGUE Bruno 30h 01' 17 V2M TRIATHLON BASSIN BELLEGAR M 125 V2M 7867
960 DECOSTANZI Arthur 30h 01' 19 SEM TEAM FRAGILE M 355 SEM 6892
961 RUSAKOV Dmitry 30h 02' 47 V1M TopLigaClub M 364 V1M 7955
962 LETORT Anthony 30h 04' 15 SEM FRA M 356 SEM 7772
963 PeREZ FARINA Sergio 30h 04' 45 SEM MENRISCOTRAIL M 357 SEM 7416
964 GABRIELLE Brice 30h 05' 24 SEM FRA M 358 SEM 8091
965 PERTTU Daniel 30h 05' 38 SEM SWE M 359 SEM 7142
966 ISHIDA Yoshihiro 30h 07' 16 SEM TEAMMRB M 360 SEM 7509
967 MITA Chiyomi 30h 07' 17 SEF TEAMMRB F 58 SEF 7044
968 DIAS Helena 30h 07' 56 V1F BUDEGUITA RUNNERS F 35 V1F 7194
969 DIAS Ana 30h 07' 58 V1F BUDEGUITA RUNNERS F 36 V1F 7170
969 LAGOA Paulo 30h 07' 58 V1M BUDEGUITA RUNNERS M 365 V1M 7766
971 ALMEIDA Tiago 30h 07' 59 V1M BUDEGUITA RUNNERS M 366 V1M 7599
972 COMBALUZIER Christophe 30h 08' 25 V2M COUTACH EVASION M 126 V2M 7430
973 SAUNIER Jean Pierre 30h 08' 58 V2M FRA M 127 V2M 8039
974 CABRERA GARCIA Yaiza 30h 09' 14 V1F C.D. ECOSUB ATL?NTICO F 37 V1F 6789
975 IZQUIERDO SANCHEZ Jose MarIa 30h 09' 17 V2M ECOSUBATLANTICO M 128 V2M 7704
976 GAI Thierry 30h 10' 12 V2M CLES GARDANNE M 129 V2M 7812
977 MARTIN COCHER Bruno 30h 10' 34 V1M FRA M 367 V1M 7345
978 SEILER Arthur 30h 12' 42 SEM FRA M 361 SEM 7510
979 YE Wen 30h 12' 47 V1M UPAR M 368 V1M 7634
980 FERRAUTO Eric 30h 12' 50 SEM TEAM OZARM M 362 SEM 7021
981 WHITAKER Richard 30h 13' 02 V1M GBR M 369 V1M 7412
982 DUCHATEL Christophe 30h 13' 09 V2M FRA M 130 V2M 7948
983 TOMMASI Stephane 30h 13' 26 SEM SPAC/PRAZ MONTAGNE M 363 SEM 7541
984 CRAPART Laurent 30h 13' 27 V1M FRA M 370 V1M 7026
985 HA TRAN Thi 30h 15' 10 SEF FRA F 59 SEF 7064
986 PACHECO Luis 30h 15' 38 V2M SOCIEDAD EXCURSIONISTA DE M 131 V2M 8063
987 GENOVESE Davide 30h 16' 33 SEM G.S.A. ASIAGO M 364 SEM 7035
988 LO IACONO Ignazio 30h 16' 46 V3M A.S.D. MARATHON MONREALE M 12 V3M 7747
989 ZIKAS Nikolaos 30h 17' 04 V3M KASSIMIS TRAINING TRAXINA M 13 V3M 7327
990 HENG Chanthou 30h 17' 15 V1M FRA M 371 V1M 8028
991 FOURNIER BIDOZ Martin 30h 18' 31 SEM UNICEF 74 M 365 SEM 7133
992 ANTROBUS Tim 30h 18' 49 V2M GBR M 132 V2M 7959
993 GUO Yaokun 30h 20' 36 V2M CHN M 133 V2M 7961
994 ENFOUX Sebastien 30h 22' 06 V1M FRA M 372 V1M 7469
995 BOUCHET Stephane 30h 22' 12 V1M FRA M 373 V1M 8149
996 NOUSBAUM Frederic 30h 23' 50 V1M FRA M 374 V1M 8048
997 NOUSBAUM Edouard 30h 23' 51 V1M FRA M 375 V1M 8043
998 NOIROT Laurent 30h 23' 57 V1M CAP QUINCIEUX M 376 V1M 7461
999 BERTRAND Bruno 30h 23' 58 SEM CA PICTAVE M 366 SEM 7695
999 LEONELLI Daniele 30h 23' 58 V1M ITA M 377 V1M 7767
1001 SO Kin Shing 30h 24' 31 V1M HKG M 378 V1M 7641
1002 CHAN Lap Yee 30h 24' 38 V1F HKG F 38 V1F 6432
1003 HUI Lai Pui 30h 24' 40 SEF COLUMBIA TEAM F 60 SEF 6309
1004 COUTURIER Alain 30h 25' 07 V2M SUI M 134 V2M 8140
1005 HERBLAND Guillaume 30h 25' 31 SEM FRA M 367 SEM 7662
1006 VASILACHE Cristina 30h 25' 56 SEF ROU F 61 SEF 6959
1007 PESSINA Paolo 30h 26' 50 V2M ITA M 135 V2M 8075
1008 DORNIER Sebastien 30h 27' 39 V1M FRA M 379 V1M 7776
1009 VAYSSE Florian 30h 28' 58 SEM FRA M 368 SEM 7570
1010 DAMEVIN Jean Claude 30h 29' 24 V2M FRA M 136 V2M 7528
1011 TOMA Albert 30h 29' 48 V3M PLERIN ATHLETISME M 14 V3M 7596
1012 KOPPE Jean Loup 30h 30' 34 V3M CLUB DES SPORTS VALBERG M 15 V3M 7225
1013 CALAS Olivier 30h 31' 01 V1M FRA M 380 V1M 8066
1014 GUERIN Sebastien 30h 31' 30 V1M COURIR POUR LES TRISOMIQU M 381 V1M 7482
1014 TAReS MARTINEZ Toni 30h 31' 30 V1M ESP M 382 V1M 7551
1016 FORTIN Laurent 30h 31' 31 V1M RCCN M 383 V1M 7653
1017 DENG Jiayu 30h 32' 48 V1F CHN F 39 V1F 6529
1018 CALABUIG BELDA Juan Bta 30h 32' 58 V1M TRIVICI BANYERES M 384 V1M 7436
1019 WEBB Simon 30h 33' 03 V1M GBR M 385 V1M 7446
1020 JOUTEUX Sebastien 30h 33' 13 SEM CAM VALLEE DU CHER CONTRO M 369 SEM 8060
1021 ZHU Wei 30h 34' 05 SEM JDTC M 370 SEM 7502
1022 REN Dongsheng 30h 34' 13 V1M CHN M 386 V1M 7842
1023 HENRY Philippe 30h 34' 45 V1M FRA M 387 V1M 8042
1024 DE NADAI DUMONT Sabrina 30h 34' 53 V1F Asia Sport Connection F 40 V1F 6425
1025 DE CLAUSER Giovanni 30h 37' 10 V1M ITA M 388 V1M 6845
1026 MERCIER Olaf 30h 37' 18 V1M PRAC M 389 V1M 8005
1027 PANKOTAI Zita 30h 37' 27 V1F HUN F 41 V1F 6925
1028 NOWE Herve 30h 37' 36 V2M BEL M 137 V2M 7885
1028 REQUIRAND Philippe 30h 37' 36 V2M FOULEES SAUSSINOISES M 138 V2M 8015
1030 AKI Hirohito 30h 37' 42 V1M JPN M 390 V1M 7989
1031 TOMITA Yoji 30h 37' 45 V2M JPN M 139 V2M 8116
1032 LEPILLIER Antoine 30h 38' 51 V1M SAINT DENIS EMOTION M 391 V1M 7259
1033 VILLAVERDE CARRERA Jose 30h 39' 16 SEM PEDRA DO ACORDO M 371 SEM 7889
1034 CINCA Judit 30h 39' 25 V1F Blue Isards F 42 V1F 6724
1035 WOLNY Zdzislaw 30h 39' 54 V2M CLEAREX M 140 V2M 7746
1036 BARJOLIN Fabrice 30h 40' 03 V2M MACADAM77 M 141 V2M 7658
1037 CACHART Olivier 30h 40' 53 V1M JCPLP TRAIL EN DOUAISIS M 392 V1M 7709
1038 MEIRSMAN Bernard 30h 40' 54 V2M JCPL EN DOUAISIS M 142 V2M 7876
1038 PICHON Claude 30h 40' 54 V3M JCPLP M 16 V3M 7998
1040 DEGAND Aline 30h 40' 55 SEF JCPLP F 62 SEF 6931
1041 W RML NDER Anna 30h 42' 45 V1F SWE F 43 V1F 6979
1042 W RML NDER Alexis 30h 42' 48 V1M SWE M 393 V1M 6863
1043 VILLARO Almir 30h 43' 14 SEM ESP M 372 SEM 7974
1044 MIGUEL HIDALGO Jose 30h 44' 40 V1M C.D. ATLETISMO SANTA FE G M 394 V1M 7582
1045 RONS Voldem rs 30h 44' 44 SEM JENSEN METAL M 373 SEM 7391
1046 KEARNEY James 30h 46' 23 SEM IRL M 374 SEM 7803
1047 BOURGIER Nicolas 30h 46' 56 V1M CAP GRAND AIR M 395 V1M 7890
1048 FELGINES Joel 30h 47' 20 V2M FRA M 143 V2M 7576
1049 FATATO Carmine 30h 48' 37 V2M ASD GRUPPO SPORTIVO CELAN M 144 V2M 7300
1050 TESSIER Stephane 30h 49' 53 V2M AS PARFUMS CHRISTIAN DIOR M 145 V2M 7944
1051 CALERO Juan Manuel 30h 49' 54 V1M AS DIOR M 396 V1M 7144
1052 KAMI SKI Bartosz 30h 49' 56 SEM POL M 375 SEM 7701
1053 VIARD Quentin 30h 51' 13 SEM FRA M 376 SEM 7247
1054 LABISSE Sebastien 30h 52' 33 V1M FRA M 397 V1M 6326
1055 HOFFER Marc 30h 54' 57 V1M FRA M 398 V1M 7828
1056 CUENOT Valentin 30h 54' 59 ESM FETERNES M 4 ESM 7686
1057 VEYRE Aurelia 30h 55' 05 V1F FRA F 44 V1F 6908
1058 BARBIERI Diana 30h 55' 23 V1F ASD DLF RUNNING TEAM F 45 V1F 6858
1058 CAMPIONE Pietro 30h 55' 23 V2M ASD DLF RUNNING TEAM M 146 V2M 7463
1060 FIGUEROA ORTUNO Manuel 30h 55' 37 V1M CLUB NERJA ATLETISMO M 399 V1M 7880
1061 PENNEY Dave 30h 56' 41 V1M GBR M 400 V1M 6303
1062 FOX Jennifer 30h 57' 34 V2F CHAROLS SPORT LOISIRS F 12 V2F 7283
1063 CHRISP Paul 30h 57' 37 V2M DELAMERE SPARTAN M 147 V2M 7795
1064 TERVILLE Julien 30h 57' 57 V1M TEAM RUSTIQUE M 401 V1M 8089
1065 RODRIGUEZ RUANO Arturo 31h 00' 47 V2M ESP M 148 V2M 7594
1066 PILEBO Per 31h 01' 34 SEM SWE M 377 SEM 7433
1067 GUICHERD Guillaume 31h 01' 55 V1M LA FOULEE MUROISE M 402 V1M 7632
1068 VIDONI Laurent 31h 03' 34 V2M RUN ACCUEIL LA ROCHELLE M 149 V2M 7724
1069 ALBERTINI Patrizia 31h 03' 48 V2F MUD E SNOW F 13 V2F 7040
1070 WAH BORON CHENG Cheung 31h 03' 51 V2M HKG M 150 V2M 8126
1071 DELPIERRE Jean Paul 31h 04' 13 V2M Team Iron Race / Crosscal M 151 V2M 8016
1072 AUTHEMAN Jean Marc 31h 04' 15 V1M team Iron Race/CrossCALL M 403 V1M 7951
1073 FUMAGALLI Massimiliano 31h 05' 42 V1M ASD CARVICO SKY RUNNING M 404 V1M 7082
1073 SACCHI Massimo 31h 05' 42 V2M SPORT EVOLUTION M 152 V2M 7413
1075 REATI Alessandro 31h 06' 09 V2M ALTITUDE RACE ITALY M 153 V2M 7512
1076 YU CHAN Pak 31h 07' 06 V1M HKG M 405 V1M 7856
1077 SCHMITZ Alexandre 31h 07' 46 SEM FRA M 378 SEM 7580
1078 GILLANT Michel 31h 09' 13 V2M BEL M 154 V2M 7932
1079 RODEGHIERO Luigi 31h 11' 33 V1M ITA M 406 V1M 7472
1080 BEEB Nadia 31h 11' 37 V1F GER F 46 V1F 6805
1081 LONGONI Sara 31h 11' 39 SEF ITA F 63 SEF 6585
1082 REMONDAZ Piero 31h 11' 41 V2M ITA M 155 V2M 7860
1083 LOUDOT Vincent 31h 12' 32 SEM FRA M 379 SEM 6318
1084 RIGONI Nicola 31h 12' 47 V1M ITA M 407 V1M 7755
1085 XIONGHUA Liu 31h 13' 06 SEF CHN F 64 SEF 8167
1086 FILIPE CARVALHAIS LuIs 31h 15' 12 V2M POR M 156 V2M 8210
1087 FONTINHA LuIs 31h 15' 16 V2M BILARUNNERS M 157 V2M 7325
1088 ROUSSELET Thierry 31h 15' 20 V2M FRA M 158 V2M 7775
1089 TURLAN VIVARES Sabine 31h 15' 22 V1F FRA F 47 V1F 8170
1090 ROUX Alexandre 31h 15' 53 SEM FRA M 380 SEM 8026
1091 CAMPODONICO Nicolas 31h 16' 38 SEM ASPTT NICE TEAM GORET TRA M 381 SEM 7349
1092 PILLOT Julien 31h 16' 39 SEM FRA M 382 SEM 7879
1093 LELONG Olivier 31h 16' 46 V1M FRA M 408 V1M 7471
1094 HEUGEBAERT Claire 31h 17' 44 SEF ATHLETIC BRUNOY CLUB F 65 SEF 6932
1095 VERMAST Didier 31h 18' 11 V2M CMBM M 159 V2M 8096
1096 DEHAYNIN Brice 31h 18' 35 V2M FRA M 160 V2M 7826
1097 DEHAYNIN Christine 31h 18' 38 V2F FRA F 14 V2F 7182
1098 LEROUX Philippe 31h 19' 15 V2M FRA M 161 V2M 7715
1099 DURAND CHEVAL Clotilde 31h 19' 17 V2F H2R F 15 V2F 6751
1100 MALHERBE Thierry 31h 20' 48 SEM USTR M 383 SEM 7523
1101 BOUSQUET Michelle 31h 24' 21 V1F CAN F 48 V1F 6743
1102 SIMON Gilles 31h 25' 01 V2M FRA M 162 V2M 8067
1103 BRUNON David 31h 25' 37 V1M AS IBM LYON M 409 V1M 7665
1104 COLLOUD Danielle 31h 25' 38 V2F LA FOULEE MUROISE F 16 V2F 7089
1105 PROKOPOV Todor 31h 28' 42 SEM BUL M 384 SEM 7320
1105 IHARA Masahiro 31h 28' 42 V1M JPN M 410 V1M 7607
1107 DANY Nadine 31h 28' 43 V2F CMBM F 17 V2F 7201
1108 MARCOS GARCIA Juan Antonio 31h 28' 48 V3M PASICO A PASICO M 17 V3M 7904
1109 GREVIN Pascal 31h 29' 11 V2M FRA M 163 V2M 7960
1110 STREDEL Juan 31h 30' 06 V1M Czcoven M 411 V1M 7722
1111 ROZE Thierry 31h 30' 51 V2M AS ROTO SPORTS RUNNING M 164 V2M 7224
1112 ILLINGWORTH Stephanie 31h 31' 40 V2F GBR F 18 V2F 6768
1113 ILLINGWORTH Guy 31h 31' 41 V2M GBR M 165 V2M 6891
1114 GROSSO Roberto 31h 32' 27 V2M CIMAVILLA RUNNING TEAM M 166 V2M 6784
1115 RAMOS CORRALES Emerson 31h 32' 37 V1M RAIZ TRAIL/ VELOZ ASSESSO M 412 V1M 6896
1116 JABLOWSKI Cedric 31h 32' 38 SEM FRA M 385 SEM 7730
1117 LUCHESE GUERREIRO Lucinara 31h 32' 39 V1F RAIZ TRAIL/ VELOZ ASSESSO F 49 V1F 6718
1117 BUREAU Pierre 31h 32' 39 V1M K RAID ARDENNES M 413 V1M 8041
1119 ZHOU Jun 31h 33' 11 SEM CHN M 386 SEM 7492
1120 SPINA Julien 31h 33' 27 V1M FRA M 414 V1M 7311
1121 GAO Ping 31h 34' 04 SEF Altra China F 66 SEF 6680
1122 JAMBART MICHEL 31h 34' 12 V2M FRA M 167 V2M 7855
1123 YU Dongmei 31h 34' 26 SEF AMOYTRAIL CLUB F 67 SEF 6984
1124 CARLOS TORRES MARTINEZ Luis 31h 34' 45 SEM ESP M 387 SEM 7149
1125 JAVIER VAZQUEZ MELONES Jose 31h 34' 47 SEM AD PATONES SE MUEVE M 388 SEM 8184
1126 KE Jianlin 31h 34' 52 SEM AMOYTRAIL CLUB M 389 SEM 8143
1127 MERLE Franck 31h 35' 03 V2M FRA M 168 V2M 8008
1128 USUI Yasukuni 31h 36' 34 V1M VIVA LA VIDA M 415 V1M 7843
1129 DOSSMANN Julien 31h 37' 55 SEM FRA M 390 SEM 7597
1130 SONAGLIA Massimo 31h 38' 09 V1M ATLETICA UMBERTIDE M 416 V1M 7956
1131 MAXIMILIANO MARTINIS Marcos 31h 39' 12 V1M ARG M 417 V1M 7720
1132 ANGEL PASTOR FRANCO Luis 31h 39' 15 V1M Trimas M 418 V1M 7952
1133 NOVAK Michael 31h 39' 20 V1M CZE M 419 V1M 7618
1134 PERRUCHON Jean Baptiste 31h 39' 25 V3M TRAIL CLUB SAINT GERVAIS M 18 V3M 7564
1135 BATTESTI Julien 31h 39' 48 V1M FRA M 420 V1M 7901
1136 TAI LIU Yuen 31h 40' 15 V2M CHN M 169 V2M 8218
1137 MENG Qingxin 31h 40' 21 V1M ONE SEASON M 421 V1M 7965
1138 CHEN Hongming 31h 40' 22 SEM CHN M 391 SEM 7682
1139 SEMENZATO Alessio 31h 42' 38 SEM ITA M 392 SEM 7490
1140 ELOIRE Ludovic 31h 43' 29 V1M FRA M 422 V1M 7958
1141 JOUCLA Carole 31h 43' 45 V2F ALVOIRON F 19 V2F 7018
1142 MAILLARD Nicolas 31h 44' 52 SEM FRA M 393 SEM 8047
1143 KLOPOTOWSKA Beata 31h 47' 04 SEF ABOVE2000 F 68 SEF 7020
1144 LIU Yuanbin 31h 48' 00 V1M FUZHOU MOREPOWER M 423 V1M 6995
1145 CLAIR Christophe 31h 48' 08 V2M FRA M 170 V2M 7910
1146 VALLAEYS Loic 31h 48' 10 V2M FRA M 171 V2M 7390
1147 D'OLEON Jean Marie 31h 48' 56 V2M FRA M 172 V2M 7899
1148 DEBARE Dominique 31h 48' 58 V1M FRA M 424 V1M 7920
1149 WALZER Chris 31h 49' 17 V2M AUT M 173 V2M 8002
1150 GOURCEROL Frederic 31h 49' 49 V1M FRA M 425 V1M 7470
1151 PASSEMARD Frederic 31h 50' 25 V2M TEAM GLOBETRAILERS M 174 V2M 8017
1152 FAN Yucai 31h 50' 33 SEM CHN M 394 SEM 8055
1153 MORISHIMA Tadashi 31h 51' 47 V2M JPN M 175 V2M 7976
1154 BROWN Simon 31h 53' 01 SEM GBR M 395 SEM 7522
1155 CHAGNEUX Yves 31h 53' 11 V1M RUN ET MOI M 426 V1M 7759
1156 FROIDEFOND Jean Louis 31h 53' 13 V1M RUN ET MOI M 427 V1M 7733
1157 DELIGEARD Franck 31h 53' 15 V1M RUN & MOI M 428 V1M 7810
1158 AMENGUAL BUADES Miquel 31h 53' 26 V1M ESP M 429 V1M 7950
1159 SUN Weining 31h 53' 59 SEM COLUMBIA M 396 SEM 7925
1160 FELDMAN Moty 31h 56' 29 V1M ISR M 430 V1M 8065
1161 GOUWENS Marco 31h 57' 20 V1M TEAM RAIDLIGHT NL B M 431 V1M 7840
1162 DUMAS Mathieu 32h 01' 16 SEM FRA M 397 SEM 7696
1163 SIRIGU Daniela 32h 01' 17 V2F COURMAYEUR TRAILERS F 20 V2F 6902
1164 GUERET Cyrille 32h 01' 18 V1M ENDURANCE 23 M 432 V1M 7692
1165 DUMOUX Jacques 32h 01' 47 V2M FRA M 176 V2M 7844
1166 GAGLIO stephane 32h 01' 56 V1M CMBM M 433 V1M 7558
1167 LOZA Cyril 32h 03' 04 V1M FRA M 434 V1M 7504
1168 KOTSIARIS Stefanos 32h 03' 11 SEM GRE M 398 SEM 7748
1169 YAVAS Onur 32h 03' 19 V1M TUR M 435 V1M 7830
1170 BARDEAU Serge 32h 05' 34 V3M ACTION 12 M 19 V3M 7807
1171 ADLER Thomas 32h 05' 41 V2M GBR M 177 V2M 8035
1172 TUNNEY Phillip 32h 05' 42 V1M GBR M 436 V1M 6336
1173 VIEILLE Florian 32h 06' 02 SEM FRA M 399 SEM 7945
1174 REMOND Philippe 32h 06' 13 V2M SPORT ANTIPOLIS MARATHON M 178 V2M 7357
1175 ISHIHARA Hiroshi 32h 07' 09 V2M CHARI RUN YA M 179 V2M 7166
1176 MUNEMORI Takahiro 32h 07' 25 V2M OSJ M 180 V2M 7852
1177 SAITO Shigeaki 32h 07' 46 V1M CUTSAW M 437 V1M 8095
1178 XIA Wenjin 32h 08' 05 SEM JOSEMITE M 400 SEM 7749
1179 VAN DER MERWE Riana 32h 09' 09 V2F RSA F 21 V2F 6855
1179 VAN DER MERWE Mynhardt 32h 09' 09 V2M RSA M 181 V2M 7942
1181 GEVENOIS Nicolas 32h 10' 19 SEM 7TTEAM RUNNING CONCEPT M 401 SEM 7771
1182 GOESSENS Sebastien 32h 10' 22 V1M JCHSH/ACTE M 438 V1M 8004
1183 DEMOULIN Bernard 32h 10' 23 V1M BIOTRAIL M 439 V1M 7546
1184 DEMOULIN Brigitte 32h 10' 32 V2F RCNAMUR F 22 V2F 6970
1185 CASSIERS Michel 32h 10' 34 V2M BRTC M 182 V2M 7700
1186 CESARIO Ludovico 32h 13' 05 V1M ITA M 440 V1M 8080
1187 AGUIAR Roman 32h 13' 13 SEM CARPHIAL TEROR TRAIL M 402 SEM 8171
1188 BOUCHET Johann 32h 13' 54 V1M FRA M 441 V1M 7650
1189 MARIO NINO OCANA Jesus 32h 14' 20 V2M TRAILRUNNER AVANZA JAEN M 183 V2M 7032
1190 RUSS Mark 32h 15' 18 V2M GBR M 184 V2M 8105
1191 PHONYIAM Ekkaphon 32h 15' 52 SEM KINGUD KIN D M 403 SEM 8061
1192 SERGI Simone 32h 15' 59 V1M COURMAYEUR TRAILERS M 442 V1M 7181
1193 GIL Patrick 32h 16' 58 V2M ATSCAF ST VICTORET M 185 V2M 7927
1194 SERNA FRANCO Maximiliano 32h 17' 00 SEM VEN M 404 SEM 8097
1195 BERTOLLE Fabrice 32h 18' 08 V2M FRA M 186 V2M 7831
1196 SOYEZ Pierre 32h 18' 18 SEM FRA M 405 SEM 7838
1197 BOUMAZA Nadine 32h 18' 24 V1F CA VEYNES F 50 V1F 6960
1198 OREDSSON Magnus 32h 19' 08 V2M SWE M 187 V2M 7853
1199 SANCHEZ Antonio 32h 19' 19 V1M SUI M 443 V1M 8127
1200 KERTeSZ Kata 32h 20' 11 SEF COFFEERUN SE F 69 SEF 7254
1201 ZENZ Alice 32h 20' 34 SEF LC KAPELLN F 70 SEF 6589
1202 CHAN YAO CHONG Pierre 32h 20' 59 V3M FRA M 20 V3M 7919
1203 DUPIN Vincent 32h 24' 34 V1M PASSPARTOUT TRAILERS DU J M 444 V1M 7677
1204 NOUALHAGUET Christine 32h 24' 36 V2F PASSPARTOUT TRAILERS DU J F 23 V2F 7389
1205 BARNSTEN Jerry 32h 24' 39 V1M SWEDISH TRAILRUNNING M 445 V1M 8019
1206 BUTTAY Patrice 32h 24' 44 V1M FRA M 446 V1M 8027
1207 MAGNANI Maxime 32h 24' 57 SEM FRA M 406 SEM 7056
1208 FILIPOVA Lida 32h 24' 59 V1F SK BABICE F 51 V1F 7264
1209 LEFRANCOIS Rudy 32h 25' 04 SEM ROYAT URBAN TRAIL M 407 SEM 7465
1210 VERISSIMO Cyril 32h 25' 05 V2M ROYAT URBAN TRAIL RUNNING M 188 V2M 7219
1211 BIRMAN Elsa 32h 25' 06 SEF Trail Aventures F 71 SEF 6813
1211 FUNKA Andrzej 32h 25' 06 V2M NKB CHYZY NOWY TOMYSL M 189 V2M 8070
1213 GODINOU Christophe 32h 25' 10 SEM FRA M 408 SEM 7737
1214 MARTZ Didier 32h 25' 50 V1M DSDM M 447 V1M 7760
1215 BORGES Antonio 32h 26' 06 V2M LUX M 190 V2M 7997
1216 MAKASHIN Liubomir 32h 26' 23 SEM RUS M 409 SEM 7209
1217 KOBAYASHI Yumiko 32h 26' 31 V1F JPN F 52 V1F 6878
1218 ROUSSON Francois 32h 26' 37 SEM FRA M 410 SEM 7894
1219 SHIOTA Satoshi 32h 26' 40 V3M JPN M 21 V3M 8223
1220 GHIO Alfredo 32h 27' 22 V2M BASE RUNNING M 191 V2M 8074
1221 DE SA Mickael 32h 27' 26 SEM FRA M 411 SEM 7448
1222 ZHANG Huanyu 32h 28' 55 SEF CHINA GIRLS F 72 SEF 7637
1223 WU Xiabingqing 32h 28' 56 SEF OMG! F 73 SEF 6690
1224 CRISYLOU FERNANDEZ Mark 32h 29' 01 SEM Marisa Heenen Rock n Roll M 412 SEM 7814
1225 MARIE Thierry 32h 29' 02 V2M FRA M 192 V2M 8082
1226 MOZE bruno 32h 30' 14 V2M Fc uzerche nature passion M 193 V2M 8009
1227 RAN Jingchao 32h 32' 27 SEM JOYMENT M 413 SEM 7937
1228 HOLTOV Mikkel 32h 32' 33 V1M DEN M 448 V1M 8146
1229 RASQUIN Guillaume 32h 33' 04 SEM FRA M 414 SEM 7451
1230 WENDLING Karina 32h 33' 57 V1F FIN F 53 V1F 7639
1231 MIAO Lei 32h 34' 24 V1F CHN F 54 V1F 7514
1232 DI MASSIMO Daniele 32h 35' 09 V2M APD PONTE FELCINO (PG) M 194 V2M 7602
1233 D'AVOLA Fiorella 32h 35' 10 V1M ITA M 449 V1M 6895
1234 QUERAUX Jacky 32h 35' 28 V2M EPA 86 M 195 V2M 8079
1234 FROUIN Gerard 32h 35' 28 V2M ENTENTE POITIERS ATHLE 86 M 196 V2M 8123
1236 ALDO PIAT Luigi 32h 35' 54 V1M MONTANAIA RACING M 450 V1M 7922
1237 NUGON Jean Christophe 32h 36' 12 V2M FRA M 197 V2M 8014
1238 BRUCHON Patrick 32h 36' 22 V1M USCS BOUFFONS M 451 V1M 7616
1239 BOREL Jean Yves 32h 36' 23 V1M FRA M 452 V1M 7600
1240 ASKESJo Jonathan 32h 36' 51 SEM FREE NATURE M 415 SEM 7762
1241 KIKUCHI Kyoko 32h 36' 52 SEF JPN F 74 SEF 7369
1242 OLIVIA ELGAN Caroline 32h 36' 54 V1F STOCKHOLMS LANGDISTANSKLU F 55 V1F 7434
1243 LASSHEIKKI Petri 32h 36' 57 V1M ELLAIMEN KINTHAAT M 453 V1M 7873
1244 RAKOWSKI Gerhard 32h 37' 35 V2M TINE & HARRY TEAM M 198 V2M 8132
1245 CROVETTI Alessio 32h 37' 42 V1M ITA M 454 V1M 7691
1246 SELLAS ROSELL Ramon 32h 38' 19 V3M SA MILANA ALARO M 22 V3M 8137
1247 MCCOURT Donna 32h 38' 57 SEF SERPENTINE RC F 75 SEF 6912
1247 BOGGS Dorothy 32h 38' 57 SEF SERPENTINE RC F 76 SEF 7129
1249 GUEDO Nicolas 32h 39' 24 V1M EP MANOSQUE ATHLETISME M 455 V1M 6918
1250 FERNANDES MEIRA Valter 32h 41' 19 V2M MOVE Treinamento Funciona M 199 V2M 7796
1251 MORIYAMA Machiko 32h 41' 22 V2F ACRO F 24 V2F 6816
1252 KEUNG KUNG Wai 32h 41' 23 V1M HKG M 456 V1M 7296
1252 MAK Doris 32h 41' 23 SEF HKG F 77 SEF 7431
1254 SMITH Sarah 32h 41' 31 V2F VALLEY STRIDERS AC F 25 V2F 6836
1255 DANION Yann 32h 42' 16 V1M ESCAPADE MALESTROIT M 457 V1M 8110
1256 GREVELUND Christian 32h 42' 58 V1M DEN M 458 V1M 7953
1257 MARTEL Franck 32h 43' 14 V1M FRA M 459 V1M 7684
1258 DELLOYE Eric 32h 43' 32 SEM BEL M 416 SEM 7763
1259 HAN Xiaofang 32h 44' 47 V3M JOYMENT M 23 V3M 7995
1260 PASTOR Miguel 32h 45' 01 V2M C.D. NORTE DE MONTANA M 200 V2M 8030
1261 JADOT Edouard 32h 47' 05 SEM BEL M 417 SEM 7878
1261 TERLINDEN Augustin 32h 47' 05 SEM BEL M 418 SEM 8101
1263 REVEILLER Etienne 32h 48' 27 V1M CAP BUGEY M 460 V1M 7990
1263 D ORIO Jerome 32h 48' 27 V1M CAP BUGEY M 461 V1M 8190
1265 CECCHETTO Bertrand 32h 48' 37 V1M FRA M 462 V1M 8064
1266 MARGIOTTA Magalie 32h 49' 00 V1F FREE RUNNERS LE CLUB F 56 V1F 7074
1267 NICOT Frederic 32h 50' 18 V1M FRA M 463 V1M 7221
1268 MASSON Vincent 32h 50' 58 V1M FRA M 464 V1M 8012
1269 POYET Henri 32h 51' 26 V1M FRA M 465 V1M 8034
1270 IVAN GONZALEZ Jorge 32h 51' 55 V2M COL M 201 V2M 8213
1271 WU Songyue 32h 52' 20 V2M JOYMENT M 202 V2M 8083
1272 YAMASHITA Masashi 32h 52' 34 V2M TEAM NOROKICH M 203 V2M 7846
1273 DOUSSOT Marc 32h 53' 34 V2M FRA M 204 V2M 7268
1274 CASSIERE Mathieu 32h 55' 01 SEM FRA M 419 SEM 7358
1275 ABADIE Paul 32h 55' 03 SEM FRA M 420 SEM 7687
1276 RICHE Manuel 32h 55' 46 V2M FRA M 205 V2M 7705
1276 DALLE Guillaume 32h 55' 46 SEM FRA M 421 SEM 7892
1278 BORDIS Olivier 32h 57' 10 V2M FRA M 206 V2M 8025
1279 WALLA Meheza 32h 58' 03 V1M ACS CRE STIRING WENDEL M 466 V1M 7969
1280 DEMAREST Simon 32h 58' 40 SEM RCPH M 422 SEM 7317
1281 VAUDRY Franck 32h 58' 41 SEM DREAM TEAM M 423 SEM 7981
1282 HU Mi 32h 58' 43 SEM RUNNING PANDA M 424 SEM 7973
1283 ARIAS Christian 32h 59' 11 V1M RUNMAX M 467 V1M 7750
1284 VILANOVA CANTALLOPS Pep 32h 59' 33 V2M ESP M 207 V2M 8119
1285 HERNANDEZ Patrick 32h 59' 59 V3M LES MUREAUX VAL DE SEINE M 24 V3M 7986
1286 ADOLFO FEY Enrique 33h 02' 31 V2M ARG M 208 V2M 7316
1287 CHOI Jouyoung 33h 02' 41 V2M USA M 209 V2M 8211
1288 VALDELIEVRE Nicolas 33h 02' 49 V3M FRA M 25 V3M 8068
1289 GEROULT Francois Cyrille 33h 02' 52 V1M FRA M 468 V1M 7752
1290 HERMANS Laurent 33h 03' 03 V2M DRAGUIGNAN UC M 210 V2M 7820
1291 DAUPHIN Sebastien 33h 03' 19 V1M FRA M 469 V1M 7445
1292 PAREDES ROMERO Angel 33h 03' 21 V1M DETORAS.ES M 470 V1M 8081
1293 STEINIER Thierry 33h 03' 22 V2M JC HAM SUR HEURE M 211 V2M 8138
1294 ONISHI Mari 33h 04' 08 V1F JPN F 57 V1F 7428
1295 JUNICHIRO Tamori 33h 04' 09 SEM TAMORI MASSAGE M 425 SEM 8176
1296 HASEGAWA Taito 33h 04' 12 SEM ???????? M 426 SEM 8130
1297 DUCHENNE Cyrille 33h 05' 56 SEM BEL M 427 SEM 7538
1297 QUINTIN Alexandre 33h 05' 56 SEM BIOTRAIL M 428 SEM 7707
1299 CHEN Fang 33h 07' 28 V1F HOT POT F 58 V1F 6990
1300 LOUREIRO Maria 33h 07' 35 V1F BUDEGUITA RUNNERS F 59 V1F 7374
1301 MORTELETTE Jordan 33h 09' 35 SEM FRA M 429 SEM 7987
1302 JAVIER MOYANO MARTINEZ Francisco 33h 09' 37 V1M GRUPO DE MONTANA TINOSA M 471 V1M 7967
1303 CASTRO Cinthya 33h 09' 41 SEF CRC F 78 SEF 6549
1304 FERRIE Frederic 33h 09' 51 V1M FRA M 472 V1M 8114
1305 GERUSZ Vincent 33h 12' 04 V1M FRA M 473 V1M 8131
1306 TANAKA Yasuo 33h 13' 58 V2M SETAGAYA CUMIN M 212 V2M 8142
1307 MARIOTTI NIN Delphine 33h 14' 58 V1F FRA F 60 V1F 7392
1308 NIN Gilles 33h 14' 59 V1M FRA M 474 V1M 7207
1309 SILVERANS Philippe 33h 16' 38 SEM POMPIERS BRUXELLES M 430 SEM 7914
1310 CAMUS Florence 33h 18' 01 V2F FRA F 26 V2F 6998
1311 CAMUS Olivier 33h 18' 02 V2M FRA M 213 V2M 7476
1312 LAPPALAINEN Jyrki 33h 18' 08 V2M FIN M 214 V2M 8090
1313 KURITA Eri 33h 18' 35 V1F JPN F 61 V1F 6991
1314 PUCCI Niccol 33h 19' 20 V1M ITA M 475 V1M 7411
1315 LEO Mathieu 33h 19' 32 V1M LEO ET ASSOCIES M 476 V1M 7394
1316 TENORIO Jabes 33h 19' 35 V2M ML MIX RUN XP M 215 V2M 8221
1317 TOGUCHI Yusaku 33h 19' 55 SEM JPN M 431 SEM 6628
1317 SATO Yoshitaka 33h 19' 55 SEM JPN M 432 SEM 7442
1319 NIKLASSON Mats 33h 21' 39 V2M LONESOME RUNNERS M 216 V2M 7569
1320 WOODS Helen 33h 21' 41 V2F HORSHAM JOGGERS F 27 V2F 7331
1321 LANDEMAINE Christophe 33h 22' 12 V1M L'HUISSERIE JOGGING M 477 V1M 8087
1322 ARTINI Diego 33h 22' 53 V1M TRAIL RUNNING PROJECT M 478 V1M 7905
1323 LEJEUNE Virginie 33h 25' 44 V2F FRA F 28 V2F 7462
1324 VELEBIT Dragoljub 33h 27' 02 V2M ASK NETTINGSDORF M 217 V2M 8072
1325 DUC Serge 33h 29' 58 V3M GHAA M 26 V3M 8046
1326 RICHARD David 33h 39' 33 V1M FRA M 479 V1M 8057
1327 BEAUMONT Fabien 33h 39' 34 V1M TOWN TO TRAIL M 480 V1M 7751
1328 HERNANDO GOMEZ BERRIO Pablo 34h 16' 51 V2M ACTRAINING M 218 V2M 8148


ReferencementCe site est listé dans la catégorie Sport : Sports extrêmes Dictionnaire
| Accueil | La Réunion  Vue du ciel | Météo | Cyclones | Volcan | Cirques de Mafate , Cilaos , Salazie | Photos Randonnées | Randonnées Réunion: Randos Espiègle , Courses montagne | Diagonale des Fous |  Marathon des Sables | Voyages Les stats du site | Fonds écran | Plan du site | Blog de runraid | Galerie photos Sport Réunion |